2016 Spa Girl Tri Results

[ Triathlon | Shortened Triathlon | Swim Bike | Bike Run | Swim Run ]
2016 Spa Girl Tri
Triathlon Results
Overall Swim
--400m--
T1 Bike
--10 Miles--
T2 Run
--2 Miles--
AG
Pos
Overall
Pos
Name Race No Finish
Time
AG
Pos
Overall
Pos
Time Pace AG
Pos
Overall
Pos
Time AG
Pos
Overall
Pos
Time Pace AG
Pos
Overall
Pos
Time AG
Pos
Overall
Pos
Time Pace
Ages 14 and Under
1 22 Jaycie SILHAN 215 01:03:03 1 1 00:06:47 1:41 sec/100m 8 196 00:02:56 2 88 00:36:53 16.3 m/hr 1 5 00:00:53 2 14 00:15:33 8:11 min/m
2 57 Lauren JONAS 178 01:07:15 11 211 00:08:34 2:08 sec/100m 1 6 00:01:12 3 100 00:37:15 16.1 m/hr 3 11 00:00:56 6 170 00:19:15 10:08 min/m
3 93 Kylie ROBERTS 398 01:09:46 2 2 00:06:48 1:42 sec/100m 6 141 00:02:38 8 195 00:39:34 15.2 m/hr 5 55 00:01:21 8 177 00:19:22 10:12 min/m
4 116 Ryan MILLS 126 01:10:57 3 23 00:07:22 1:50 sec/100m 4 105 00:02:20 6 143 00:38:17 15.7 m/hr 8 144 00:01:45 16 319 00:21:11 11:09 min/m
5 119 Sophia NGUYEN 383 01:11:08 14 261 00:08:44 2:11 sec/100m 9 198 00:02:56 7 166 00:38:54 15.4 m/hr 2 10 00:00:56 9 195 00:19:36 10:19 min/m
6 171 Grace HENNESSEY 8 01:13:35 5 36 00:07:32 1:53 sec/100m 5 129 00:02:29 9 250 00:40:35 14.8 m/hr 7 102 00:01:35 17 334 00:21:21 11:14 min/m
7 347 Madyson JIMENEZ 1104 01:21:23 8 90 00:08:09 2:02 sec/100m 34 787 00:07:46 12 447 00:45:11 13.3 m/hr 10 190 00:01:52 5 111 00:18:23 9:40 min/m
8 378 Jessie REEVES 1178 01:22:38 35 770 00:10:39 2:39 sec/100m 2 58 00:02:00 1 28 00:34:20 17.5 m/hr 31 635 00:03:37 33 762 00:32:01 16:51 min/m
9 391 Catie HAMISCH 247 01:23:17 9 136 00:08:20 2:05 sec/100m 3 68 00:02:06 18 576 00:48:09 12.5 m/hr 6 61 00:01:23 20 455 00:23:18 12:15 min/m
10 413 Haley BOCK 232 01:23:54 18 359 00:09:00 2:15 sec/100m 12 349 00:03:41 21 652 00:50:32 11.9 m/hr 4 44 00:01:17 7 176 00:19:22 10:11 min/m
11 430 Emma FRANK 161 01:24:37 6 39 00:07:35 1:53 sec/100m 13 440 00:04:09 26 699 00:52:58 11.3 m/hr 9 162 00:01:47 4 91 00:18:06 9:31 min/m
12 444 Zoe GARVIN 330 01:25:03 21 435 00:09:12 2:18 sec/100m 35 799 00:08:05 22 665 00:51:12 11.7 m/hr 11 193 00:01:53 1 3 00:14:39 7:43 min/m
13 461 Lauren BENFIELD 298 01:25:41 10 172 00:08:27 2:06 sec/100m 16 526 00:04:30 14 482 00:45:48 13.1 m/hr 17 371 00:02:25 22 519 00:24:28 12:52 min/m
14 467 Isabella MURPHY 380 01:25:51 28 540 00:09:31 2:22 sec/100m 20 601 00:05:02 16 566 00:47:51 12.5 m/hr 23 478 00:02:48 12 265 00:20:37 10:51 min/m
15 469 Sophie JAAFAR 956 01:25:54 16 312 00:08:54 2:13 sec/100m 33 779 00:07:29 5 113 00:37:30 16.0 m/hr 28 603 00:03:27 32 699 00:28:32 15:01 min/m
16 470 Myla RUDD 401 01:25:55 22 448 00:09:16 2:19 sec/100m 19 583 00:04:55 19 590 00:48:49 12.3 m/hr 15 357 00:02:24 10 253 00:20:29 10:47 min/m
17 471 Alexis AGUALLO 338 01:25:56 17 339 00:08:58 2:14 sec/100m 31 777 00:07:29 4 112 00:37:29 16.0 m/hr 29 611 00:03:28 31 695 00:28:30 15:00 min/m
18 472 Marlo ZAMORA 100 01:25:58 31 686 00:10:06 2:31 sec/100m 15 484 00:04:18 17 570 00:47:55 12.5 m/hr 20 444 00:02:40 14 297 00:20:57 11:01 min/m
19 510 Emma FRERMAN 593 01:27:28 34 751 00:10:32 2:38 sec/100m 23 655 00:05:35 15 498 00:46:07 13.0 m/hr 35 708 00:04:19 13 291 00:20:53 10:59 min/m
20 551 Olivia HENNESSEY 1129 01:29:36 4 30 00:07:29 1:52 sec/100m 7 162 00:02:46 20 592 00:48:51 12.3 m/hr 19 386 00:02:28 30 673 00:28:00 14:44 min/m
21 565 Libertie BARNETT 142 01:30:26 30 655 00:09:57 2:29 sec/100m 27 731 00:06:24 13 462 00:45:24 13.2 m/hr 37 765 00:05:06 21 475 00:23:34 12:24 min/m
22 570 Gabi WALKER 430 01:30:45 7 64 00:07:56 1:59 sec/100m 14 450 00:04:12 27 700 00:52:58 11.3 m/hr 30 625 00:03:33 18 366 00:22:03 11:36 min/m
23 590 Emily PRIDEMORE 563 01:31:50 15 284 00:08:48 2:12 sec/100m 36 801 00:08:08 28 731 00:54:52 10.9 m/hr 26 564 00:03:17 3 30 00:16:43 8:48 min/m
24 618 Naya JAYARAM 193 01:33:21 38 811 00:11:20 2:50 sec/100m 21 603 00:05:04 25 684 00:52:13 11.5 m/hr 33 688 00:04:07 11 262 00:20:36 10:50 min/m
25 642 Lea ANZ 958 01:34:41 13 242 00:08:41 2:10 sec/100m 11 292 00:03:25 24 681 00:52:04 11.5 m/hr 22 455 00:02:42 28 663 00:27:47 14:37 min/m
26 657 Madelyn CHAO 149 01:35:26 29 616 00:09:48 2:27 sec/100m 26 714 00:06:13 29 741 00:56:16 10.7 m/hr 12 240 00:02:03 15 308 00:21:04 11:05 min/m
27 658 Victoria TREVINO 730 01:35:29 36 795 00:10:56 2:44 sec/100m 10 270 00:03:19 23 668 00:51:26 11.7 m/hr 21 447 00:02:40 27 634 00:27:06 14:16 min/m
28 681 Esme MORENO 999 01:37:19 19 379 00:09:03 2:15 sec/100m 38 818 00:09:29 10 325 00:42:05 14.3 m/hr 16 368 00:02:25 34 798 00:34:15 18:01 min/m
29 730 Natalie CHAO 150 01:43:33 32 691 00:10:08 2:32 sec/100m 24 666 00:05:40 30 744 00:56:27 10.6 m/hr 27 587 00:03:23 29 665 00:27:54 14:41 min/m
30 734 Liliana RODRIGUEZ 1044 01:43:44 20 411 00:09:09 2:17 sec/100m 18 570 00:04:50 31 771 00:59:28 10.1 m/hr 25 556 00:03:14 26 630 00:27:02 14:13 min/m
31 735 Katelyn NGUYEN 1132 01:43:48 26 523 00:09:27 2:21 sec/100m 30 769 00:07:17 11 417 00:44:10 13.6 m/hr 38 806 00:06:59 36 812 00:35:53 18:53 min/m
32 762 Tallulah WILSON 939 01:46:49 25 493 00:09:22 2:20 sec/100m 29 757 00:06:56 32 780 01:01:34 9.7 m/hr 36 719 00:04:26 23 523 00:24:29 12:53 min/m
33 778 Zoe TANNER 930 01:49:55 12 221 00:08:37 2:09 sec/100m 32 778 00:07:29 35 804 01:05:48 9.1 m/hr 18 372 00:02:26 24 567 00:25:33 13:27 min/m
34 781 Maia RODRIGUEZ 1159 01:50:01 24 476 00:09:19 2:19 sec/100m 28 756 00:06:54 34 803 01:05:47 9.1 m/hr 14 356 00:02:24 25 568 00:25:36 13:28 min/m
35 796 Maia CHALLAPALLI 778 01:53:50 23 472 00:09:18 2:19 sec/100m 25 711 00:06:11 37 821 01:12:01 8.3 m/hr 34 701 00:04:14 19 368 00:22:05 11:37 min/m
36 826 Alyssa SPARKS 413 02:05:25 37 810 00:11:17 2:49 sec/100m 37 807 00:08:37 33 782 01:01:42 9.7 m/hr 32 644 00:03:41 38 830 00:40:07 21:06 min/m
37 833 Alyssa FARIS 1127 02:07:18 27 527 00:09:28 2:22 sec/100m 17 568 00:04:50 38 829 01:16:14 7.9 m/hr 13 348 00:02:23 35 800 00:34:21 18:05 min/m
38 837 Emily TIERNAN 421 02:07:54 33 711 00:10:15 2:33 sec/100m 22 639 00:05:29 36 816 01:10:03 8.6 m/hr 24 480 00:02:49 37 828 00:39:18 20:41 min/m
Ages 15 and 19
1 25 Kaylee ANDERSON 227 01:03:53 2 34 00:07:31 1:52 sec/100m 1 177 00:02:50 1 19 00:33:20 18.0 m/hr 8 534 00:03:06 2 41 00:17:03 8:58 min/m
2 132 Delaney HARRIS 248 01:11:44 1 8 00:07:05 1:46 sec/100m 4 316 00:03:32 2 316 00:41:47 14.4 m/hr 2 91 00:01:32 4 74 00:17:46 9:21 min/m
3 279 Lauren SWIFT 1181 01:18:25 4 132 00:08:19 2:04 sec/100m 7 417 00:04:02 5 461 00:45:23 13.2 m/hr 5 217 00:01:57 5 131 00:18:42 9:50 min/m
4 295 Raini VARGAS 845 01:19:06 8 628 00:09:50 2:27 sec/100m 8 506 00:04:25 6 472 00:45:36 13.2 m/hr 6 297 00:02:13 1 40 00:17:00 8:56 min/m
5 415 Diana JONES 351 01:23:58 5 204 00:08:33 2:08 sec/100m 3 301 00:03:26 11 696 00:52:52 11.3 m/hr 3 125 00:01:41 3 57 00:17:24 9:09 min/m
6 539 Holly HARPER 168 01:29:03 7 303 00:08:53 2:13 sec/100m 5 398 00:03:54 9 618 00:49:28 12.1 m/hr 9 543 00:03:09 9 481 00:23:36 12:25 min/m
7 540 Andrea SANTANGELO 813 01:29:04 6 289 00:08:49 2:12 sec/100m 6 409 00:03:59 3 401 00:43:41 13.7 m/hr 14 820 00:08:58 8 476 00:23:34 12:24 min/m
8 564 Justice BARNETT 141 01:30:23 9 642 00:09:53 2:28 sec/100m 12 730 00:06:23 4 444 00:44:59 13.3 m/hr 13 784 00:05:33 7 474 00:23:33 12:24 min/m
9 578 Taylor OHLAND 678 01:31:09 3 98 00:08:12 2:03 sec/100m 13 735 00:06:26 7 518 00:46:38 12.9 m/hr 12 717 00:04:24 10 566 00:25:27 13:23 min/m
10 656 Sofia AXELSSON 618 01:35:24 11 664 00:10:00 2:30 sec/100m 2 181 00:02:53 12 725 00:54:18 11.0 m/hr 4 183 00:01:51 11 599 00:26:20 13:51 min/m
11 671 Maddie LOPEZ 719 01:35:46 10 662 00:09:59 2:29 sec/100m 9 573 00:04:52 8 565 00:47:50 12.5 m/hr 11 677 00:03:58 12 715 00:29:04 15:18 min/m
12 768 Ryan WILBURN 442 01:47:33 12 700 00:10:10 2:32 sec/100m 11 664 00:05:40 13 800 01:05:18 9.2 m/hr 10 663 00:03:51 6 401 00:22:32 11:51 min/m
13 771 Kailey LOPEZ 950 01:48:17 14 787 00:10:48 2:42 sec/100m 14 822 00:09:44 10 666 00:51:16 11.7 m/hr 1 32 00:01:12 14 806 00:35:15 18:33 min/m
14 831 Allie LOGGIE 365 02:07:01 13 768 00:10:39 2:39 sec/100m 10 645 00:05:30 14 832 01:18:19 7.7 m/hr 7 467 00:02:46 13 731 00:29:46 15:40 min/m
Ages 20 - 24
1 12 Erin MIKRUT 375 01:00:43 4 78 00:08:07 2:01 sec/100m 1 5 00:01:11 1 8 00:31:49 18.8 m/hr 4 214 00:01:56 2 67 00:17:38 9:16 min/m
2 63 Leah EVANS 158 01:07:55 3 62 00:07:55 1:58 sec/100m 8 507 00:04:25 2 165 00:38:54 15.4 m/hr 1 49 00:01:19 1 10 00:15:19 8:04 min/m
3 138 Caroline HILL 855 01:12:02 2 27 00:07:29 1:52 sec/100m 5 269 00:03:19 4 238 00:40:20 14.9 m/hr 3 130 00:01:42 3 165 00:19:11 10:05 min/m
4 269 Leeanna HEMMER 120 01:17:57 5 134 00:08:19 2:04 sec/100m 3 146 00:02:39 8 410 00:43:56 13.7 m/hr 6 326 00:02:19 5 270 00:20:41 10:53 min/m
5 272 Emilie VALLES 844 01:18:03 14 384 00:09:04 2:16 sec/100m 7 427 00:04:06 5 242 00:40:24 14.8 m/hr 15 753 00:04:55 4 189 00:19:32 10:16 min/m
6 362 Stephanie BOEHM 1004 01:21:50 8 237 00:08:40 2:10 sec/100m 4 193 00:02:55 6 284 00:41:02 14.6 m/hr 5 270 00:02:08 13 631 00:27:02 14:14 min/m
7 457 Kalie VOGELER 220 01:25:33 1 9 00:07:06 1:46 sec/100m 9 627 00:05:21 7 392 00:43:34 13.8 m/hr 10 460 00:02:44 12 621 00:26:46 14:05 min/m
8 458 Maria SIMON 695 01:25:36 15 432 00:09:11 2:17 sec/100m 12 690 00:05:52 10 463 00:45:24 13.2 m/hr 13 649 00:03:43 6 336 00:21:23 11:15 min/m
9 536 Daniella SANTANGELO 210 01:28:57 10 257 00:08:43 2:10 sec/100m 6 421 00:04:03 13 635 00:49:59 12.0 m/hr 8 422 00:02:35 9 479 00:23:35 12:24 min/m
10 557 Kristen KUNKEL 1029 01:29:58 13 352 00:08:59 2:14 sec/100m 2 122 00:02:28 15 653 00:50:34 11.9 m/hr 9 431 00:02:37 10 561 00:25:18 13:19 min/m
11 602 Katelyn SIMPSON 1142 01:32:45 7 182 00:08:29 2:07 sec/100m 18 793 00:07:53 3 204 00:39:49 15.1 m/hr 18 833 00:13:23 7 444 00:23:09 12:11 min/m
12 604 Margaret SIMPSON 1141 01:32:53 11 263 00:08:45 2:11 sec/100m 17 788 00:07:48 9 448 00:45:13 13.3 m/hr 17 815 00:07:57 8 448 00:23:10 12:11 min/m
13 609 Stephanie COPSY 731 01:33:07 12 313 00:08:54 2:13 sec/100m 13 700 00:06:00 12 619 00:49:29 12.1 m/hr 7 331 00:02:20 11 600 00:26:22 13:52 min/m
14 616 Kacie TYLL 704 01:33:17 6 151 00:08:23 2:05 sec/100m 11 681 00:05:47 11 496 00:46:06 13.0 m/hr 2 122 00:01:39 17 754 00:31:20 16:29 min/m
15 678 Rebecca TRAMMELL 414 01:36:55 9 239 00:08:41 2:10 sec/100m 10 643 00:05:30 14 641 00:50:08 12.0 m/hr 12 643 00:03:40 14 709 00:28:55 15:13 min/m
16 770 Gabriella ESCAMILLA 1103 01:48:17 16 560 00:09:34 2:23 sec/100m 16 734 00:06:26 17 761 00:58:19 10.3 m/hr 11 481 00:02:49 15 747 00:31:06 16:22 min/m
17 794 Kathryn OAKLEY 200 01:52:45 18 780 00:10:44 2:41 sec/100m 15 716 00:06:15 16 757 00:58:10 10.3 m/hr 16 797 00:06:21 16 750 00:31:14 16:26 min/m
18 844 Brittany PEAKE 745 02:16:17 17 640 00:09:53 2:28 sec/100m 14 706 00:06:06 18 827 01:15:21 8.0 m/hr 14 724 00:04:29 18 832 00:40:27 21:17 min/m
Ages 25 - 29
1 2 Kerri DURAND 241 00:56:01 1 13 00:07:07 1:46 sec/100m 3 28 00:01:44 1 5 00:31:17 19.2 m/hr 1 13 00:00:57 1 7 00:14:55 7:51 min/m
2 9 Carol GODSEY 243 00:59:43 2 14 00:07:07 1:46 sec/100m 1 9 00:01:21 2 17 00:33:03 18.2 m/hr 12 147 00:01:45 3 25 00:16:26 8:38 min/m
3 36 Honeylynne PASCUAL 761 01:05:11 7 66 00:07:58 1:59 sec/100m 8 154 00:02:42 3 59 00:35:51 16.7 m/hr 4 52 00:01:20 5 51 00:17:18 9:06 min/m
4 56 Hillary ORTIZ 19 01:07:02 3 25 00:07:27 1:51 sec/100m 27 437 00:04:08 4 62 00:35:59 16.7 m/hr 10 136 00:01:44 6 71 00:17:42 9:19 min/m
5 68 Shannon HOUSTON 65 01:08:30 10 116 00:08:15 2:03 sec/100m 21 366 00:03:47 9 145 00:38:20 15.6 m/hr 17 221 00:01:58 2 22 00:16:08 8:29 min/m
6 103 Kelley GAWLIK 904 01:10:25 42 520 00:09:27 2:21 sec/100m 4 40 00:01:53 8 142 00:38:17 15.7 m/hr 2 25 00:01:09 17 198 00:19:37 10:19 min/m
7 109 Abigail MARTFNEZ 192 01:10:40 25 266 00:08:45 2:11 sec/100m 15 236 00:03:10 13 230 00:40:14 14.9 m/hr 7 106 00:01:36 4 37 00:16:53 8:53 min/m
8 122 Elizabeth MROZ 14 01:11:26 4 44 00:07:41 1:55 sec/100m 6 144 00:02:39 15 252 00:40:36 14.8 m/hr 20 276 00:02:10 8 104 00:18:18 9:38 min/m
9 163 Kaleigh FLIPPIN 642 01:13:13 19 193 00:08:31 2:07 sec/100m 12 217 00:03:03 14 236 00:40:19 14.9 m/hr 14 165 00:01:48 14 187 00:19:30 10:15 min/m
10 186 Chelsea BUCHANAN 306 01:14:28 30 338 00:08:58 2:14 sec/100m 37 610 00:05:07 10 146 00:38:21 15.6 m/hr 33 430 00:02:37 13 179 00:19:23 10:12 min/m
11 189 Kelsey KIRWEN 596 01:14:43 6 65 00:07:58 1:59 sec/100m 39 616 00:05:14 5 73 00:36:22 16.5 m/hr 40 562 00:03:15 24 355 00:21:51 11:30 min/m
12 193 Amanda VADER 95 01:14:53 17 181 00:08:28 2:07 sec/100m 2 27 00:01:43 24 394 00:43:35 13.8 m/hr 3 43 00:01:16 19 212 00:19:49 10:26 min/m
13 215 Julianne VILLARREAL 428 01:15:48 11 117 00:08:16 2:04 sec/100m 30 488 00:04:20 6 76 00:36:28 16.5 m/hr 47 691 00:04:08 29 407 00:22:35 11:53 min/m
14 216 Katie BERGMAN 890 01:15:55 36 433 00:09:11 2:17 sec/100m 26 436 00:04:08 18 326 00:42:07 14.2 m/hr 6 104 00:01:35 11 145 00:18:51 9:55 min/m
15 225 Danielle GOULD 651 01:16:36 28 296 00:08:50 2:12 sec/100m 20 362 00:03:45 19 334 00:42:16 14.2 m/hr 11 137 00:01:44 20 218 00:19:59 10:31 min/m
16 235 Anna FOYT 189 01:16:52 5 45 00:07:41 1:55 sec/100m 16 254 00:03:14 7 92 00:36:57 16.2 m/hr 43 580 00:03:20 40 571 00:25:37 13:29 min/m
17 243 Ekaterina TSYBOULEVA 703 01:17:02 48 707 00:10:13 2:33 sec/100m 46 694 00:05:53 11 192 00:39:29 15.2 m/hr 38 512 00:03:00 9 115 00:18:25 9:42 min/m
18 250 Allie WATKINS 166 01:17:16 15 146 00:08:21 2:05 sec/100m 32 519 00:04:29 17 298 00:41:22 14.5 m/hr 42 577 00:03:20 18 206 00:19:42 10:22 min/m
19 258 Sara ELLEY 734 01:17:33 29 330 00:08:56 2:14 sec/100m 7 148 00:02:40 16 264 00:40:45 14.7 m/hr 28 403 00:02:31 30 413 00:22:40 11:55 min/m
20 273 Jessica POE 825 01:18:08 34 414 00:09:09 2:17 sec/100m 25 432 00:04:06 20 346 00:42:30 14.1 m/hr 37 479 00:02:49 15 190 00:19:32 10:16 min/m
21 280 Lorena HERRERA 654 01:18:26 38 440 00:09:14 2:18 sec/100m 31 513 00:04:27 25 442 00:44:57 13.3 m/hr 19 248 00:02:04 7 72 00:17:42 9:19 min/m
22 307 Ariana BARBOSA 889 01:19:25 46 695 00:10:08 2:32 sec/100m 17 257 00:03:15 21 358 00:42:41 14.1 m/hr 32 427 00:02:36 22 274 00:20:42 10:54 min/m
23 323 Kasie OATES 80 01:20:07 40 484 00:09:21 2:20 sec/100m 13 231 00:03:08 12 202 00:39:43 15.1 m/hr 36 474 00:02:48 37 551 00:25:05 13:12 min/m
24 344 Amory SKAGGS 1115 01:21:15 21 228 00:08:38 2:09 sec/100m 5 73 00:02:10 29 519 00:46:40 12.9 m/hr 16 178 00:01:50 25 359 00:21:55 11:32 min/m
25 350 Amanda ESSARY 460 01:21:27 8 67 00:07:58 1:59 sec/100m 14 232 00:03:08 35 620 00:49:33 12.1 m/hr 15 174 00:01:49 12 152 00:18:57 9:58 min/m
26 363 Lauren WRAY 754 01:21:54 31 368 00:09:02 2:15 sec/100m 10 195 00:02:56 22 383 00:43:21 13.8 m/hr 30 415 00:02:34 35 500 00:23:59 12:37 min/m
27 390 Isabelle SCHOTT 1003 01:23:10 9 112 00:08:14 2:03 sec/100m 11 207 00:03:01 30 572 00:48:00 12.5 m/hr 5 90 00:01:32 28 391 00:22:21 11:46 min/m
28 405 Allie AUTRY 436 01:23:42 20 205 00:08:33 2:08 sec/100m 24 430 00:04:06 23 386 00:43:27 13.8 m/hr 22 322 00:02:18 39 557 00:25:16 13:18 min/m
29 418 Elizabeth PALASOTA 481 01:24:12 24 259 00:08:44 2:11 sec/100m 22 395 00:03:54 31 596 00:48:57 12.3 m/hr 9 135 00:01:44 23 285 00:20:52 10:59 min/m
30 466 Elizabeth SPENCER 698 01:25:48 27 279 00:08:48 2:12 sec/100m 42 675 00:05:44 33 604 00:49:08 12.2 m/hr 31 420 00:02:35 16 192 00:19:32 10:17 min/m
31 478 Shanna SMITH 1105 01:26:04 18 184 00:08:29 2:07 sec/100m 47 740 00:06:37 27 466 00:45:29 13.2 m/hr 41 570 00:03:18 27 375 00:22:09 11:39 min/m
32 495 Alexandria WARE 438 01:26:52 43 556 00:09:34 2:23 sec/100m 36 582 00:04:54 28 512 00:46:32 12.9 m/hr 24 358 00:02:24 32 465 00:23:26 12:20 min/m
33 515 Lauren PATTILLO 22 01:27:55 23 246 00:08:41 2:10 sec/100m 35 578 00:04:54 34 605 00:49:08 12.2 m/hr 8 112 00:01:37 34 472 00:23:32 12:23 min/m
34 525 Jennifer GIL 56 01:28:28 16 175 00:08:27 2:06 sec/100m 23 403 00:03:56 32 602 00:49:03 12.2 m/hr 18 245 00:02:04 36 543 00:24:55 13:07 min/m
35 532 Tiffany HINKLE 973 01:28:47 26 270 00:08:46 2:11 sec/100m 49 811 00:08:50 26 450 00:45:14 13.3 m/hr 46 659 00:03:49 26 370 00:22:05 11:37 min/m
36 541 Dalia APONTE 1101 01:29:06 12 130 00:08:19 2:04 sec/100m 34 574 00:04:53 40 702 00:53:05 11.3 m/hr 25 392 00:02:29 21 243 00:20:19 10:41 min/m
37 542 Stephanie RODRIGUEZ 832 01:29:07 13 138 00:08:20 2:05 sec/100m 9 183 00:02:53 45 748 00:57:05 10.5 m/hr 21 320 00:02:18 10 117 00:18:29 9:44 min/m
38 577 Brandi HUGHES 998 01:31:08 14 143 00:08:21 2:05 sec/100m 18 299 00:03:26 41 711 00:53:22 11.2 m/hr 26 399 00:02:30 33 467 00:23:27 12:21 min/m
39 614 Meg TEICHHAMMOND 1106 01:33:16 45 692 00:10:08 2:32 sec/100m 38 611 00:05:08 39 694 00:52:42 11.4 m/hr 29 414 00:02:33 31 420 00:22:44 11:58 min/m
40 644 Heatherly LAS MARIAS 1082 01:34:45 32 371 00:09:02 2:15 sec/100m 44 683 00:05:48 38 689 00:52:23 11.5 m/hr 23 347 00:02:23 38 553 00:25:08 13:13 min/m
41 664 Colleen RICHTER 829 01:35:37                                    
42 677 Jennifer HOPKINS 793 01:36:28 44 565 00:09:36 2:24 sec/100m 28 443 00:04:09 37 675 00:51:42 11.6 m/hr 34 437 00:02:38 46 689 00:28:21 14:55 min/m
43 686 Courtney HOLLEY 974 01:37:36 37 439 00:09:13 2:18 sec/100m 40 621 00:05:17 43 734 00:55:00 10.9 m/hr 13 158 00:01:47 42 593 00:26:17 13:50 min/m
44 699 Shannon HOUSTON 172 01:39:09 22 229 00:08:39 2:09 sec/100m 19 338 00:03:36 46 751 00:57:21 10.5 m/hr 39 516 00:03:01 44 607 00:26:30 13:56 min/m
45 719 Mikala GUILLAUME 907 01:41:06 47 702 00:10:10 2:32 sec/100m 45 684 00:05:48 42 721 00:53:55 11.1 m/hr 35 439 00:02:39 47 697 00:28:31 15:00 min/m
46 745 Vivian GALLEGOS 329 01:45:07 41 497 00:09:22 2:20 sec/100m 48 766 00:07:10 36 638 00:50:00 12.0 m/hr 48 742 00:04:39 48 790 00:33:53 17:50 min/m
47 754 Brittany ELANDER 1011 01:46:24 49 748 00:10:30 2:37 sec/100m 41 649 00:05:32 47 772 00:59:36 10.1 m/hr 45 608 00:03:28 45 638 00:27:17 14:21 min/m
48 776 Rachelle PESTANAS 84 01:48:56 35 420 00:09:10 2:17 sec/100m 43 678 00:05:46 44 743 00:56:22 10.6 m/hr 44 588 00:03:24 49 797 00:34:13 18:00 min/m
49 786 Karla RIVAS 685 01:51:48 39 455 00:09:16 2:19 sec/100m 29 467 00:04:16 48 807 01:07:04 8.9 m/hr 49 774 00:05:18 41 579 00:25:52 13:37 min/m
50 808 Megan STUART 882 01:56:26 33 408 00:09:08 2:17 sec/100m 33 543 00:04:38 49 823 01:13:41 8.1 m/hr 27 401 00:02:30 43 603 00:26:26 13:54 min/m
Ages 30 - 34
1 3 Barb MORCOMBE 128 00:56:38 18 102 00:08:12 2:03 sec/100m 2 57 00:01:59 1 4 00:31:13 19.2 m/hr 15 95 00:01:33 1 1 00:13:38 7:10 min/m
2 15 Jennifer KNUDTSON 183 01:01:18 2 22 00:07:22 1:50 sec/100m 1 7 00:01:15 2 24 00:33:42 17.8 m/hr 4 29 00:01:11 9 75 00:17:46 9:21 min/m
3 24 Jessica AELVOET 860 01:03:32 1 3 00:06:51 1:42 sec/100m 5 72 00:02:10 12 106 00:37:22 16.1 m/hr 3 28 00:01:10 2 18 00:15:58 8:24 min/m
4 48 Julia GRAY 7 01:06:15 20 119 00:08:16 2:04 sec/100m 3 63 00:02:02 3 33 00:34:41 17.3 m/hr 11 69 00:01:26 32 210 00:19:47 10:25 min/m
5 49 Jessica POLDERMAN 1119 01:06:18 58 405 00:09:07 2:16 sec/100m 14 167 00:02:46 9 84 00:36:46 16.3 m/hr 17 108 00:01:37 3 19 00:16:00 8:25 min/m
6 62 Regina MCCLENDON 259 01:07:52 15 93 00:08:10 2:02 sec/100m 11 110 00:02:22 10 85 00:36:47 16.3 m/hr 53 365 00:02:25 14 96 00:18:07 9:32 min/m
7 65 Rachel VERME 96 01:08:15 3 24 00:07:23 1:50 sec/100m 19 229 00:03:08 13 119 00:37:43 15.9 m/hr 1 26 00:01:10 25 142 00:18:50 9:54 min/m
8 74 Monica JEFFRIES 1197 01:08:40 51 372 00:09:02 2:15 sec/100m 6 79 00:02:11 8 83 00:36:45 16.3 m/hr 51 360 00:02:24 15 103 00:18:15 9:36 min/m
9 76 Kristi FREDERICK 525 01:08:55 31 198 00:08:32 2:08 sec/100m 12 119 00:02:26 4 42 00:35:16 17.0 m/hr 10 60 00:01:22 47 329 00:21:17 11:12 min/m
10 80 Staci DAVIS 733 01:09:00 9 69 00:08:01 2:00 sec/100m 40 372 00:03:48 6 49 00:35:32 16.9 m/hr 37 269 00:02:08 28 186 00:19:28 10:15 min/m
11 114 Gabriela PANTOJA 20 01:10:53 77 543 00:09:31 2:22 sec/100m 9 97 00:02:16 19 194 00:39:33 15.2 m/hr 44 319 00:02:18 5 48 00:17:14 9:04 min/m
12 118 Kim WILLIAMSON 1144 01:11:08 40 282 00:08:48 2:12 sec/100m 17 215 00:03:03 11 98 00:37:10 16.1 m/hr 50 351 00:02:23 31 205 00:19:42 10:22 min/m
13 123 April OBERSTELLER 1185 01:11:26 50 354 00:09:00 2:15 sec/100m 54 422 00:04:04 14 156 00:38:35 15.5 m/hr 6 36 00:01:14 19 121 00:18:32 9:45 min/m
14 131 Joanna HERNANDEZ 653 01:11:42 13 88 00:08:09 2:02 sec/100m 4 66 00:02:03 16 169 00:38:57 15.4 m/hr 48 340 00:02:22 35 230 00:20:08 10:36 min/m
15 148 Zoe SLATON 765 01:12:22 6 54 00:07:50 1:57 sec/100m 30 288 00:03:24 26 272 00:40:49 14.7 m/hr 14 88 00:01:31 23 135 00:18:46 9:52 min/m
16 159 Jordan LOCKLEAR 186 01:13:00 8 63 00:07:56 1:59 sec/100m 36 328 00:03:34 34 312 00:41:40 14.4 m/hr 21 131 00:01:42 13 93 00:18:06 9:32 min/m
17 162 Alyssa MCDANIEL 546 01:13:10 86 615 00:09:48 2:27 sec/100m 83 622 00:05:17 15 163 00:38:50 15.4 m/hr 16 105 00:01:36 6 66 00:17:38 9:16 min/m
18 164 Barbara MCKINNON 143 01:13:16 21 150 00:08:22 2:05 sec/100m 57 447 00:04:11 28 290 00:41:13 14.6 m/hr 23 138 00:01:44 8 73 00:17:45 9:20 min/m
19 178 Christina JENSCHKE 1176 01:13:53 7 57 00:07:52 1:58 sec/100m 22 256 00:03:15 20 197 00:39:37 15.1 m/hr 76 536 00:03:07 33 221 00:20:00 10:31 min/m
20 190 Emily POMEROY 559 01:14:47 33 214 00:08:35 2:08 sec/100m 70 518 00:04:29 27 273 00:40:50 14.7 m/hr 29 191 00:01:53 26 153 00:18:58 9:59 min/m
21 199 Kristine GALLAGHER 878 01:15:11 56 392 00:09:06 2:16 sec/100m 80 592 00:04:58 31 303 00:41:30 14.5 m/hr 30 195 00:01:53 7 70 00:17:41 9:18 min/m
22 211 Courtney PADILLA 268 01:15:45 87 631 00:09:51 2:27 sec/100m 73 546 00:04:41 25 270 00:40:47 14.7 m/hr 78 558 00:03:14 4 45 00:17:10 9:02 min/m
23 217 Paige FINAN 523 01:15:56 14 89 00:08:09 2:02 sec/100m 8 88 00:02:13 17 177 00:39:10 15.3 m/hr 57 394 00:02:29 70 495 00:23:53 12:34 min/m
24 220 Jennifer SERRANO 407 01:16:10 39 277 00:08:47 2:11 sec/100m 23 263 00:03:17 52 431 00:44:32 13.5 m/hr 2 27 00:01:10 16 110 00:18:21 9:39 min/m
25 222 Brittany HOPEK 64 01:16:18 66 473 00:09:18 2:19 sec/100m 32 298 00:03:26 41 374 00:43:07 13.9 m/hr 56 382 00:02:28 10 83 00:17:57 9:27 min/m
26 229 Jenny GRAF 339 01:16:46 22 152 00:08:23 2:05 sec/100m 44 378 00:03:50 47 409 00:43:55 13.7 m/hr 41 291 00:02:13 17 113 00:18:24 9:41 min/m
27 230 Lora KNAPP 31 01:16:46 90 667 00:10:00 2:30 sec/100m 91 688 00:05:51 18 193 00:39:31 15.2 m/hr 73 500 00:02:57 18 114 00:18:25 9:42 min/m
28 246 Lizi LI 474 01:17:07 55 390 00:09:05 2:16 sec/100m 13 139 00:02:36 30 295 00:41:20 14.5 m/hr 33 246 00:02:04 52 363 00:22:00 11:35 min/m
29 249 Addie WIELAND 498 01:17:13 19 105 00:08:13 2:03 sec/100m 7 83 00:02:12 24 269 00:40:47 14.7 m/hr 8 48 00:01:19 74 533 00:24:40 12:58 min/m
30 251 Mollie MCCULLOUGH 757 01:17:17 24 156 00:08:24 2:06 sec/100m 18 218 00:03:04 42 378 00:43:12 13.9 m/hr 38 271 00:02:09 39 251 00:20:27 10:45 min/m
31 259 Jessica SPECTOR 490 01:17:35 12 85 00:08:09 2:02 sec/100m 20 240 00:03:10 22 227 00:40:09 14.9 m/hr 85 621 00:03:32 60 402 00:22:33 11:52 min/m
32 264 Sarah BARRIENTES 505 01:17:39 45 309 00:08:53 2:13 sec/100m 47 388 00:03:52 32 309 00:41:38 14.4 m/hr 9 50 00:01:20 50 358 00:21:54 11:31 min/m
33 275 Stephanie FIGUEROA 1118 01:18:16 37 248 00:08:42 2:10 sec/100m 35 324 00:03:33 40 361 00:42:44 14.0 m/hr 43 317 00:02:17 43 298 00:20:58 11:02 min/m
34 276 Courtney DODGE 637 01:18:20 30 195 00:08:31 2:07 sec/100m 34 320 00:03:33 58 489 00:45:59 13.0 m/hr 13 83 00:01:29 24 137 00:18:47 9:53 min/m
35 286 Meredith LARSON 184 01:18:41 29 192 00:08:31 2:07 sec/100m 71 530 00:04:33 57 474 00:45:39 13.1 m/hr 5 33 00:01:13 22 134 00:18:44 9:51 min/m
36 289 Lindsey FLEMING 53 01:18:48 5 53 00:07:49 1:57 sec/100m 38 351 00:03:42 36 321 00:41:59 14.3 m/hr 25 152 00:01:46 69 470 00:23:31 12:22 min/m
37 290 Lori LEHMBERG 361 01:18:53 10 81 00:08:08 2:02 sec/100m 24 266 00:03:18 50 419 00:44:17 13.5 m/hr 20 121 00:01:39 48 341 00:21:30 11:19 min/m
38 300 Cristina TATE 701 01:19:10 46 322 00:08:55 2:13 sec/100m 28 280 00:03:22 35 315 00:41:44 14.4 m/hr 45 325 00:02:19 63 422 00:22:48 12:00 min/m
39 301 Roxanne MOORE 75 01:19:14 54 386 00:09:05 2:16 sec/100m 39 360 00:03:45 49 418 00:44:10 13.6 m/hr 63 421 00:02:35 29 199 00:19:38 10:20 min/m
40 304 Christopher CASKEY 628 01:19:18 16 97 00:08:12 2:03 sec/100m 16 200 00:02:57 73 582 00:48:20 12.4 m/hr 7 42 00:01:16 20 122 00:18:32 9:45 min/m
41 305 Heather LODAHL 597 01:19:19 75 541 00:09:31 2:22 sec/100m 45 382 00:03:51 33 310 00:41:39 14.4 m/hr 19 111 00:01:37 62 412 00:22:39 11:55 min/m
42 306 Shealynn WALKER 1054 01:19:24 44 302 00:08:52 2:13 sec/100m 10 103 00:02:18 44 397 00:43:36 13.8 m/hr 18 109 00:01:37 64 431 00:23:00 12:06 min/m
43 317 Cristine JONES 800 01:19:48 67 475 00:09:19 2:19 sec/100m 84 635 00:05:26 23 266 00:40:45 14.7 m/hr 82 591 00:03:24 42 287 00:20:52 10:59 min/m
44 320 Stephanie HORSTMANN 1130 01:20:01 63 446 00:09:15 2:18 sec/100m 43 377 00:03:50 46 406 00:43:48 13.7 m/hr 34 250 00:02:04 44 305 00:21:01 11:04 min/m
45 327 Emily ROOT 686 01:20:18 48 333 00:08:57 2:14 sec/100m 26 275 00:03:20 45 399 00:43:39 13.7 m/hr 79 569 00:03:17 45 306 00:21:03 11:05 min/m
46 332 Shannon DORNON 900 01:20:37 81 573 00:09:37 2:24 sec/100m 25 272 00:03:19 56 467 00:45:30 13.2 m/hr 26 155 00:01:46 38 248 00:20:23 10:43 min/m
47 334 Jana FUENTES 116 01:20:51 74 531 00:09:29 2:22 sec/100m 81 595 00:04:59 29 291 00:41:13 14.6 m/hr 72 499 00:02:56 55 379 00:22:12 11:41 min/m
48 339 Melissa BUREK 512 01:21:01 76 542 00:09:31 2:22 sec/100m 64 491 00:04:20 39 337 00:42:17 14.2 m/hr 67 459 00:02:44 54 373 00:22:07 11:38 min/m
49 340 Dina TOM 580 01:21:07 99 762 00:10:35 2:38 sec/100m 72 541 00:04:38 38 332 00:42:15 14.2 m/hr 84 607 00:03:28 36 233 00:20:10 10:37 min/m
50 341 Kim BENDER 621 01:21:10 80 568 00:09:37 2:24 sec/100m 76 571 00:04:50 62 507 00:46:24 12.9 m/hr 40 277 00:02:10 12 90 00:18:06 9:31 min/m
51 357 Claudia SHORTT 410 01:21:39 34 227 00:08:38 2:09 sec/100m 94 751 00:06:45 21 226 00:40:09 14.9 m/hr 86 642 00:03:40 58 395 00:22:25 11:48 min/m
52 368 Rachel FEELER 641 01:22:08 70 498 00:09:22 2:20 sec/100m 62 474 00:04:16 48 416 00:44:08 13.6 m/hr 47 329 00:02:20 53 364 00:22:00 11:35 min/m
53 369 Kayla HEYWARD 1137 01:22:10 17 100 00:08:12 2:03 sec/100m 21 242 00:03:11 69 542 00:47:20 12.7 m/hr 12 75 00:01:27 51 362 00:21:59 11:34 min/m
54 370 Natalie DAVIS 1007 01:22:10 23 155 00:08:23 2:05 sec/100m 50 392 00:03:53 55 458 00:45:20 13.2 m/hr 42 306 00:02:15 56 387 00:22:17 11:44 min/m
55 374 Ashley GARZA 163 01:22:25 38 269 00:08:46 2:11 sec/100m 48 389 00:03:52 51 426 00:44:28 13.5 m/hr 27 169 00:01:49 68 469 00:23:29 12:21 min/m
56 381 Shameice FISCHER 591 01:22:50 26 176 00:08:28 2:07 sec/100m 82 596 00:04:59 63 511 00:46:30 12.9 m/hr 66 443 00:02:40 37 234 00:20:11 10:37 min/m
57 386 Rena FRACKT 325 01:22:55 85 606 00:09:45 2:26 sec/100m 42 375 00:03:49 5 44 00:35:19 17.0 m/hr 28 170 00:01:49 96 767 00:32:11 16:56 min/m
58 401 Danelle LLANES 542 01:23:36 64 450 00:09:16 2:19 sec/100m 85 641 00:05:30 37 327 00:42:07 14.2 m/hr 92 699 00:04:13 59 397 00:22:28 11:49 min/m
59 402 Myra WELLER 497 01:23:37 11 83 00:08:08 2:02 sec/100m 97 784 00:07:39 53 432 00:44:34 13.5 m/hr 62 410 00:02:33 41 269 00:20:41 10:53 min/m
60 426 Leslie WARD 433 01:24:32 25 157 00:08:24 2:06 sec/100m 67 502 00:04:24 68 533 00:47:02 12.8 m/hr 31 237 00:02:02 61 411 00:22:38 11:55 min/m
61 434 Daniela BURLESON 1156 01:24:46 27 179 00:08:28 2:07 sec/100m 58 465 00:04:16 54 434 00:44:38 13.4 m/hr 52 362 00:02:24 75 545 00:24:57 13:08 min/m
62 482 Rebekah FREEMAN 968 01:26:24 42 287 00:08:49 2:12 sec/100m 41 373 00:03:49 70 567 00:47:52 12.5 m/hr 24 140 00:01:44 71 504 00:24:08 12:42 min/m
63 498 Brittany TENORIO 749 01:26:59 28 185 00:08:30 2:07 sec/100m 61 471 00:04:16 74 584 00:48:20 12.4 m/hr 49 343 00:02:22 67 468 00:23:28 12:21 min/m
64 499 Angela HOUSTON 66 01:26:59 4 49 00:07:45 1:56 sec/100m 33 309 00:03:29 61 500 00:46:19 13.0 m/hr 60 402 00:02:31 83 627 00:26:54 14:09 min/m
65 502 Melony EMPAYNADO 51 01:27:05 59 415 00:09:09 2:17 sec/100m 92 702 00:06:04 77 601 00:49:02 12.2 m/hr 77 550 00:03:11 30 200 00:19:38 10:20 min/m
66 506 Erica CASAREZ 1149 01:27:18 89 652 00:09:56 2:29 sec/100m 53 418 00:04:03 85 662 00:51:01 11.8 m/hr 22 134 00:01:43 40 259 00:20:33 10:48 min/m
67 512 Monica HERNANDEZ 169 01:27:33 65 459 00:09:17 2:19 sec/100m 59 466 00:04:16 67 528 00:46:58 12.8 m/hr 70 473 00:02:48 72 507 00:24:13 12:44 min/m
68 524 Dawn RODRIGUEZ 24 01:28:26 103 781 00:10:44 2:41 sec/100m 52 411 00:04:01 84 633 00:49:51 12.0 m/hr 69 465 00:02:45 46 307 00:21:04 11:05 min/m
69 545 Lee BUCHANAN 586 01:29:12 53 383 00:09:04 2:16 sec/100m 60 470 00:04:16 43 385 00:43:23 13.8 m/hr 36 264 00:02:06 93 737 00:30:20 15:58 min/m
70 546 Alicia PEREZ 822 01:29:13 94 719 00:10:17 2:34 sec/100m 93 733 00:06:26 64 513 00:46:33 12.9 m/hr 68 464 00:02:45 66 449 00:23:11 12:12 min/m
71 559 Kristina JONES 352 01:30:06 41 286 00:08:48 2:12 sec/100m 37 334 00:03:35 94 735 00:55:04 10.9 m/hr 94 734 00:04:34 11 88 00:18:02 9:29 min/m
72 560 Cynthia GUIDRY 971 01:30:06 36 241 00:08:41 2:10 sec/100m 96 781 00:07:29 65 516 00:46:36 12.9 m/hr 102 818 00:08:34 21 133 00:18:43 9:51 min/m
73 574 Angela OBOLSKY 160 01:30:55 72 514 00:09:25 2:21 sec/100m 66 501 00:04:23 78 607 00:49:15 12.2 m/hr 61 404 00:02:31 77 562 00:25:18 13:19 min/m
74 575 Melissa YBARRA 1059 01:30:58 43 290 00:08:50 2:12 sec/100m 79 590 00:04:57 60 492 00:46:01 13.0 m/hr 96 747 00:04:46 80 601 00:26:22 13:53 min/m
75 586 Stephanie CLAYPOOL 49 01:31:32 32 213 00:08:34 2:08 sec/100m 65 497 00:04:21 75 587 00:48:31 12.4 m/hr 58 395 00:02:30 85 655 00:27:34 14:30 min/m
76 592 Courtney BRITTON 623 01:31:59 88 633 00:09:51 2:27 sec/100m 74 552 00:04:44 7 57 00:35:44 16.8 m/hr 46 327 00:02:20 105 826 00:39:17 20:40 min/m
77 596 Natalie VERETTE 28 01:32:12 57 393 00:09:06 2:16 sec/100m 89 682 00:05:48 79 609 00:49:16 12.2 m/hr 71 497 00:02:56 76 549 00:25:04 13:11 min/m
78 598 Aimee STERNBERG 94 01:32:26 47 332 00:08:57 2:14 sec/100m 78 588 00:04:57 71 571 00:47:57 12.5 m/hr 89 684 00:04:03 81 609 00:26:31 13:57 min/m
79 605 Kendra ALVAREZ 291 01:32:53 83 591 00:09:42 2:25 sec/100m 51 394 00:03:53 92 730 00:54:49 10.9 m/hr 32 241 00:02:03 57 392 00:22:24 11:47 min/m
80 621 Saralyn FOSTER 524 01:33:25 60 431 00:09:11 2:17 sec/100m 49 391 00:03:53 91 726 00:54:23 11.0 m/hr 100 790 00:05:51 34 226 00:20:06 10:34 min/m
81 636 Leslie RODRIGUEZ 400 01:34:22 82 577 00:09:38 2:24 sec/100m 29 283 00:03:22 83 632 00:49:49 12.0 m/hr 80 578 00:03:20 88 680 00:28:10 14:49 min/m
82 638 Laura WILDMAN 444 01:34:29 101 772 00:10:40 2:40 sec/100m 102 809 00:08:48 81 617 00:49:28 12.1 m/hr 54 373 00:02:26 65 437 00:23:05 12:09 min/m
83 641 Katrina SANTOS 688 01:34:38 68 483 00:09:20 2:20 sec/100m 63 477 00:04:17 80 612 00:49:21 12.2 m/hr 65 442 00:02:40 92 711 00:28:58 15:15 min/m
84 659 Andrea NYKAMP 17 01:35:30 93 694 00:10:08 2:32 sec/100m 86 647 00:05:31 66 521 00:46:43 12.8 m/hr 93 711 00:04:21 91 705 00:28:45 15:08 min/m
85 683 Amanda FORD 784 01:37:21 78 550 00:09:32 2:23 sec/100m 31 297 00:03:26 99 776 01:00:35 9.9 m/hr 35 255 00:02:05 49 349 00:21:41 11:25 min/m
86 689 Lizette GARZA 1171 01:37:52 35 231 00:08:39 2:09 sec/100m 98 791 00:07:52 82 621 00:49:34 12.1 m/hr 98 767 00:05:07 82 614 00:26:38 14:01 min/m
87 703 Lindsay WILLIAMS 1136 01:39:43 98 743 00:10:27 2:36 sec/100m 15 186 00:02:54 76 598 00:48:59 12.2 m/hr 83 606 00:03:27 101 791 00:33:53 17:50 min/m
88 711 Stacy LITTLE 255 01:40:12 62 445 00:09:15 2:18 sec/100m 95 775 00:07:27 86 685 00:52:17 11.5 m/hr 90 690 00:04:08 84 632 00:27:03 14:14 min/m
89 714 Bianca CAVAZOS 629 01:40:29 61 436 00:09:13 2:18 sec/100m 56 428 00:04:06 97 767 00:58:46 10.2 m/hr 74 507 00:02:59 78 563 00:25:24 13:22 min/m
90 715 Taara HASSAN 908 01:40:40 91 678 00:10:04 2:31 sec/100m 105 830 00:12:21 59 491 00:46:00 13.0 m/hr 101 816 00:07:59 73 509 00:24:14 12:45 min/m
91 718 Shauna HARRIS 867 01:40:59 92 687 00:10:06 2:31 sec/100m 88 677 00:05:45 90 722 00:54:01 11.1 m/hr 64 438 00:02:39 90 694 00:28:28 14:59 min/m
92 736 Julie KROSCHK 355 01:43:57 73 525 00:09:27 2:21 sec/100m 68 504 00:04:24 93 733 00:54:58 10.9 m/hr 59 400 00:02:30 98 776 00:32:36 17:09 min/m
93 737 Margo RAMIREZ 88 01:44:01 106 837 01:12:14 18:03 sec/100m     -00:54:22 87 710 00:53:19 11.3 m/hr              
94 753 Kyla SCHOLZ 689 01:46:24 49 348 00:08:59 2:14 sec/100m 27 278 00:03:21 102 792 01:03:38 9.4 m/hr 39 274 00:02:10 89 683 00:28:14 14:51 min/m
95 766 Haylee STEVENSON 1045 01:47:08                                    
96 775 Deepa VERMA 1052 01:48:53 95 735 00:10:23 2:35 sec/100m 55 423 00:04:04 96 752 00:57:23 10.5 m/hr 97 757 00:05:00 95 764 00:32:01 16:51 min/m
97 780 Erica KREBS 739 01:49:57 104 814 00:11:26 2:51 sec/100m 100 798 00:08:03 98 775 01:00:35 9.9 m/hr 91 692 00:04:08 79 575 00:25:44 13:32 min/m
98 795 Erika CANTU 234 01:52:56 102 775 00:10:42 2:40 sec/100m 90 686 00:05:50 95 747 00:56:53 10.5 m/hr 81 586 00:03:23 103 813 00:36:07 19:00 min/m
99 799 Terri THOMPSON 6 01:54:56 105 816 00:11:27 2:51 sec/100m 87 662 00:05:39 88 713 00:53:28 11.2 m/hr 99 779 00:05:24 104 824 00:38:55 20:29 min/m
100 802 Jennifer CARSE 516 01:55:48 52 378 00:09:03 2:15 sec/100m 69 517 00:04:29 106 834 01:19:23 7.6 m/hr 87 665 00:03:52 27 154 00:18:59 9:59 min/m
101 809 Jacqueline SNYDER 93 01:56:31 100 771 00:10:39 2:39 sec/100m 104 826 00:11:39 72 579 00:48:14 12.4 m/hr 104 832 00:13:22 97 775 00:32:36 17:09 min/m
102 812 Heather MARCHANT 1031 01:56:40 79 552 00:09:33 2:23 sec/100m 101 808 00:08:37 101 788 01:02:26 9.6 m/hr 95 737 00:04:35 94 758 00:31:28 16:33 min/m
103 815 Brandy KILIAN-SMITH 415 01:59:23 69 489 00:09:21 2:20 sec/100m 103 812 00:08:52 100 781 01:01:35 9.7 m/hr 103 831 00:11:27 86 677 00:28:07 14:48 min/m
104 819 Raquel LEYBA 879 02:00:14 96 739 00:10:25 2:36 sec/100m 46 385 00:03:52 103 812 01:08:35 8.7 m/hr 88 667 00:03:52 99 783 00:33:29 17:37 min/m
105 828 Aixanette FIGUEROA 1163 02:05:45 97 740 00:10:25 2:36 sec/100m 77 579 00:04:54 104 825 01:13:49 8.1 m/hr 75 521 00:03:02 100 784 00:33:33 17:39 min/m
106 832 Andrea FARIS 1111 02:07:16 71 509 00:09:25 2:21 sec/100m 75 567 00:04:50 105 828 01:16:11 7.9 m/hr 55 374 00:02:26 102 799 00:34:21 18:05 min/m
107 840 Devra GATHRIGHT 787 02:10:36 84 601 00:09:44 2:26 sec/100m 99 796 00:08:01 89 719 00:53:54 11.1 m/hr 105 836 00:30:47 87 679 00:28:08 14:48 min/m
Ages 35 - 39
1 1 Kelley ANZ 139 00:55:37 107 399 00:09:07 2:16 sec/100m 4 14 00:01:27 1 1 00:28:28 21.1 m/hr 7 39 00:01:14 6 11 00:15:20 8:04 min/m
2 7 Sarah SHRADER 213 00:58:56 3 7 00:07:05 1:46 sec/100m 8 20 00:01:35 8 15 00:32:48 18.3 m/hr 54 247 00:02:04 7 13 00:15:22 8:05 min/m
3 10 Diana MONTGOMERY 194 01:00:12 44 180 00:08:28 2:07 sec/100m 22 56 00:01:59 5 11 00:32:29 18.5 m/hr 1 9 00:00:55 10 23 00:16:18 8:35 min/m
4 11 Sara UNDERWOOD 219 01:00:40 11 40 00:07:35 1:53 sec/100m 50 169 00:02:47 2 6 00:31:40 18.9 m/hr 89 407 00:02:32 9 21 00:16:03 8:27 min/m
5 13 Erika DEIKE 1110 01:00:54 25 95 00:08:11 2:02 sec/100m 19 49 00:01:56 7 14 00:32:48 18.3 m/hr 50 225 00:01:59 8 17 00:15:58 8:24 min/m
6 14 Jennifer COLLINS 108 01:00:58 1 4 00:06:56 1:44 sec/100m 34 111 00:02:22 9 16 00:32:57 18.2 m/hr 39 184 00:01:51 16 35 00:16:50 8:51 min/m
7 16 Ashley HOWARD 818 01:01:29 54 215 00:08:36 2:09 sec/100m 10 23 00:01:39 4 9 00:32:10 18.7 m/hr 20 76 00:01:27 26 64 00:17:35 9:15 min/m
8 17 Liz JOHNSON 251 01:01:40 69 254 00:08:42 2:10 sec/100m 5 15 00:01:28 3 7 00:31:44 18.9 m/hr 124 584 00:03:22 11 24 00:16:22 8:37 min/m
9 19 Cat ADKINS 29 01:02:14 24 87 00:08:09 2:02 sec/100m 7 19 00:01:32 6 12 00:32:37 18.4 m/hr 11 53 00:01:20 43 123 00:18:33 9:46 min/m
10 20 Leslie GOODWIN 57 01:02:16 9 31 00:07:30 1:52 sec/100m 15 45 00:01:56 12 25 00:33:44 17.8 m/hr 44 209 00:01:56 19 44 00:17:09 9:01 min/m
11 27 Claire WOLL 226 01:04:02 4 11 00:07:06 1:46 sec/100m 2 4 00:01:09 29 90 00:36:54 16.3 m/hr 21 78 00:01:27 24 58 00:17:24 9:09 min/m
12 28 Tammi GONZALEZ 650 01:04:04 2 5 00:07:00 1:45 sec/100m 3 13 00:01:24 21 63 00:36:01 16.7 m/hr 9 45 00:01:17 38 109 00:18:20 9:39 min/m
13 32 Jackie ADAMS 289 01:04:53 6 15 00:07:08 1:47 sec/100m 38 123 00:02:28 30 93 00:36:57 16.2 m/hr 4 18 00:01:02 21 50 00:17:16 9:05 min/m
14 33 Kimberly DEA 316 01:04:55 18 61 00:07:55 1:58 sec/100m 17 47 00:01:56 11 22 00:33:36 17.8 m/hr 80 366 00:02:25 52 156 00:19:01 10:00 min/m
15 34 Courtney FLEETWOOD 159 01:05:04 26 96 00:08:11 2:02 sec/100m 48 163 00:02:46 35 124 00:37:54 15.8 m/hr 10 47 00:01:19 2 5 00:14:52 7:49 min/m
16 35 Jeanette ANDERSON 104 01:05:11 10 32 00:07:30 1:52 sec/100m 51 170 00:02:48 10 20 00:33:28 17.9 m/hr 108 513 00:03:00 39 112 00:18:23 9:40 min/m
17 37 Emma MADSEN 188 01:05:16 81 308 00:08:53 2:13 sec/100m 9 21 00:01:36 19 55 00:35:40 16.8 m/hr 19 71 00:01:26 27 68 00:17:39 9:17 min/m
18 41 Mindy SWANSON 492 01:05:44 36 144 00:08:21 2:05 sec/100m 61 219 00:03:04 16 46 00:35:25 16.9 m/hr 15 63 00:01:24 25 62 00:17:29 9:12 min/m
19 46 Wendy GATES 165 01:06:13 48 197 00:08:32 2:08 sec/100m 18 48 00:01:56 15 45 00:35:23 17.0 m/hr 38 173 00:01:49 42 120 00:18:32 9:45 min/m
20 51 Fancy FLORES BERNHAGEN 461 01:06:32 53 212 00:08:34 2:08 sec/100m 33 108 00:02:21 20 61 00:35:57 16.7 m/hr 17 68 00:01:26 35 99 00:18:11 9:34 min/m
21 64 Amy GONZALEZ 346 01:08:15 7 16 00:07:11 1:47 sec/100m 44 145 00:02:39 38 129 00:38:00 15.8 m/hr 25 86 00:01:30 48 147 00:18:53 9:56 min/m
22 66 Erin DEROSA 109 01:08:20 8 17 00:07:11 1:47 sec/100m 79 302 00:03:26 40 138 00:38:14 15.7 m/hr 32 151 00:01:46 28 69 00:17:40 9:18 min/m
23 67 Alexandra ALTWEIN 1125 01:08:26                                    
24 69 Loretta MALDONADO-MENCHEY 370 01:08:34 33 126 00:08:18 2:04 sec/100m 49 165 00:02:46 82 293 00:41:17 14.5 m/hr 5 20 00:01:05 4 8 00:15:06 7:57 min/m
25 72 Kathryn SHULER 276 01:08:39 137 549 00:09:32 2:23 sec/100m 31 98 00:02:16 14 36 00:34:51 17.2 m/hr 67 303 00:02:15 64 209 00:19:43 10:23 min/m
26 75 Kim DELAWYER 156 01:08:54 88 327 00:08:56 2:14 sec/100m 42 138 00:02:36 22 68 00:36:09 16.6 m/hr 102 485 00:02:52 37 108 00:18:20 9:39 min/m
27 77 Jessica BORDON 1121 01:08:57 57 224 00:08:37 2:09 sec/100m 13 35 00:01:50 34 121 00:37:48 15.9 m/hr 59 261 00:02:06 45 125 00:18:34 9:46 min/m
28 78 Amy BOWLES 310 01:08:58 15 51 00:07:46 1:56 sec/100m 45 151 00:02:41 32 109 00:37:28 16.0 m/hr 33 154 00:01:46 55 168 00:19:15 10:08 min/m
29 81 Angela MONTGOMERY 851 01:09:04 68 253 00:08:42 2:10 sec/100m 23 59 00:02:00 50 172 00:39:02 15.4 m/hr 14 62 00:01:23 29 82 00:17:54 9:25 min/m
30 82 Sarah JAUDES 67 01:09:06 72 262 00:08:44 2:11 sec/100m 35 115 00:02:25 24 72 00:36:13 16.6 m/hr 12 54 00:01:21 77 246 00:20:22 10:43 min/m
31 84 Dawn PETERSON 684 01:09:16 34 135 00:08:19 2:04 sec/100m 39 125 00:02:29 77 271 00:40:48 14.7 m/hr 2 14 00:00:59 13 28 00:16:38 8:45 min/m
32 85 Fiona BAILEY 769 01:09:22 116 452 00:09:16 2:19 sec/100m 11 24 00:01:41 46 161 00:38:46 15.5 m/hr 3 17 00:01:02 46 126 00:18:35 9:47 min/m
33 87 Kelly SHELBY 408 01:09:25 114 428 00:09:11 2:17 sec/100m 85 343 00:03:39 49 171 00:39:02 15.4 m/hr 72 312 00:02:16 5 9 00:15:14 8:01 min/m
34 88 Kylie RILEY 133 01:09:28 5 12 00:07:07 1:46 sec/100m 56 201 00:02:57 31 99 00:37:10 16.1 m/hr 109 517 00:03:01 53 164 00:19:11 10:05 min/m
35 90 Ladeitra LEE 36 01:09:40 42 162 00:08:25 2:06 sec/100m 37 121 00:02:27 37 128 00:38:00 15.8 m/hr 69 307 00:02:15 41 119 00:18:31 9:45 min/m
36 92 Riana MILLINGTON 74 01:09:43 17 60 00:07:54 1:58 sec/100m 30 96 00:02:15 71 253 00:40:38 14.8 m/hr 36 168 00:01:49 18 42 00:17:06 9:00 min/m
37 96 Brenda LEOS 362 01:10:04 31 115 00:08:15 2:03 sec/100m 36 116 00:02:25 63 219 00:40:03 15.0 m/hr 45 213 00:01:56 23 56 00:17:23 9:09 min/m
38 98 Gail JACKSON 796 01:10:08 51 208 00:08:34 2:08 sec/100m 12 30 00:01:45 33 115 00:37:32 16.0 m/hr 8 40 00:01:14 91 303 00:21:01 11:04 min/m
39 99 Susanna GIROCCO 528 01:10:15 103 376 00:09:03 2:15 sec/100m 59 212 00:03:02 53 183 00:39:23 15.2 m/hr 16 65 00:01:24 22 54 00:17:20 9:07 min/m
40 100 Heather SIMMS 764 01:10:15 19 70 00:08:02 2:00 sec/100m 90 361 00:03:45 51 174 00:39:05 15.3 m/hr 6 34 00:01:13 34 97 00:18:08 9:32 min/m
41 101 Michelle KEYES 181 01:10:19 120 481 00:09:20 2:20 sec/100m 101 449 00:04:12 58 199 00:39:38 15.1 m/hr 68 304 00:02:15 3 6 00:14:53 7:50 min/m
42 102 Merry ARMENTROUT 990 01:10:22 127 504 00:09:24 2:21 sec/100m 103 455 00:04:13 57 198 00:39:38 15.1 m/hr 70 309 00:02:15 1 4 00:14:50 7:48 min/m
43 105 Lauren MALITZ 190 01:10:29 30 113 00:08:15 2:03 sec/100m 32 106 00:02:21 44 155 00:38:35 15.6 m/hr 87 397 00:02:30 47 139 00:18:47 9:53 min/m
44 107 Jessica WILLIAMS 713 01:10:37 96 362 00:09:00 2:15 sec/100m 64 227 00:03:07 60 208 00:39:52 15.0 m/hr 31 133 00:01:43 17 36 00:16:52 8:53 min/m
45 115 J SWAN 1135 01:10:55 155 605 00:09:45 2:26 sec/100m 41 136 00:02:35 18 53 00:35:37 16.8 m/hr 85 393 00:02:29 78 252 00:20:27 10:46 min/m
46 117 Melissa NGUYEN 130 01:11:04 62 234 00:08:40 2:10 sec/100m 6 16 00:01:30 36 127 00:38:00 15.8 m/hr 119 560 00:03:14 63 202 00:19:38 10:20 min/m
47 143 Teresa ALLUMBAUGH 768 01:12:12 101 374 00:09:03 2:15 sec/100m 26 71 00:02:08 23 69 00:36:11 16.6 m/hr 129 615 00:03:30 97 331 00:21:19 11:13 min/m
48 146 Natalie JONES 661 01:12:21 119 478 00:09:19 2:19 sec/100m 21 55 00:01:59 41 139 00:38:14 15.7 m/hr 23 80 00:01:27 98 332 00:21:20 11:13 min/m
49 147 Debbie ALLEN 888 01:12:22 111 423 00:09:10 2:17 sec/100m 72 268 00:03:18 17 52 00:35:37 16.8 m/hr 126 600 00:03:25 87 284 00:20:49 10:57 min/m
50 149 Jennifer NICKEL 951 01:12:22 63 243 00:08:41 2:10 sec/100m 24 69 00:02:07 28 86 00:36:48 16.3 m/hr 48 222 00:01:59 116 421 00:22:46 11:59 min/m
51 151 Rachel STEWARD 579 01:12:28 165 656 00:09:57 2:29 sec/100m 121 521 00:04:30 43 150 00:38:27 15.6 m/hr 71 311 00:02:16 20 49 00:17:16 9:05 min/m
52 153 Brittania DARILEK 520 01:12:33 66 247 00:08:42 2:10 sec/100m 46 152 00:02:42 48 168 00:38:57 15.4 m/hr 18 70 00:01:26 84 276 00:20:44 10:55 min/m
53 157 Ericka HARRISON 854 01:12:43 105 388 00:09:05 2:16 sec/100m 89 359 00:03:44 45 157 00:38:39 15.5 m/hr 94 436 00:02:38 44 124 00:18:33 9:46 min/m
54 161 Robin HADDEN 790 01:13:08 20 72 00:08:03 2:00 sec/100m 82 315 00:03:32 25 77 00:36:37 16.4 m/hr 174 805 00:06:48 33 94 00:18:06 9:32 min/m
55 166 Mara ELLIS 522 01:13:20 49 200 00:08:32 2:08 sec/100m 68 238 00:03:10 52 182 00:39:22 15.2 m/hr 62 278 00:02:11 69 224 00:20:02 10:33 min/m
56 175 Emily WHITTLE 283 01:13:44 12 46 00:07:41 1:55 sec/100m 94 396 00:03:54 73 261 00:40:42 14.7 m/hr 86 396 00:02:30 49 149 00:18:55 9:57 min/m
57 177 Stacey JACOBS 658 01:13:52 29 110 00:08:14 2:03 sec/100m 29 93 00:02:15 75 265 00:40:45 14.7 m/hr 81 369 00:02:25 73 237 00:20:11 10:37 min/m
58 182 Sara BODNAR 453 01:14:08 76 273 00:08:47 2:11 sec/100m 28 84 00:02:12 80 287 00:41:07 14.6 m/hr 47 216 00:01:57 68 223 00:20:02 10:32 min/m
59 184 Christina MUNIZ 921 01:14:11 64 244 00:08:41 2:10 sec/100m 124 524 00:04:30 13 30 00:34:33 17.4 m/hr 61 268 00:02:08 138 512 00:24:18 12:47 min/m
60 187 Amanda WARRICK 435 01:14:35 35 141 00:08:21 2:05 sec/100m 14 41 00:01:54 91 341 00:42:24 14.1 m/hr 83 383 00:02:28 59 183 00:19:26 10:14 min/m
61 197 Anna MAKELA 788 01:14:59 27 106 00:08:13 2:03 sec/100m 58 204 00:02:57 78 280 00:40:59 14.6 m/hr 65 289 00:02:13 81 261 00:20:35 10:50 min/m
62 200 Amanda CUEVAS 633 01:15:13 78 301 00:08:51 2:12 sec/100m 73 273 00:03:20 92 347 00:42:32 14.1 m/hr 143 672 00:03:54 12 26 00:16:35 8:43 min/m
63 201 Heidi MILLER 981 01:15:16 13 47 00:07:44 1:56 sec/100m 16 46 00:01:56 117 481 00:45:46 13.1 m/hr 24 81 00:01:28 36 107 00:18:20 9:39 min/m
64 208 Kristin BOOHER 300 01:15:43 43 178 00:08:28 2:07 sec/100m 120 510 00:04:26 67 232 00:40:16 14.9 m/hr 151 721 00:04:28 31 89 00:18:04 9:30 min/m
65 213 Sandra RODRIGUEZ 207 01:15:47 39 148 00:08:21 2:05 sec/100m 27 74 00:02:10 98 357 00:42:39 14.1 m/hr 55 249 00:02:04 80 255 00:20:29 10:47 min/m
66 226 Tara KLOESEL 664 01:16:36 128 505 00:09:24 2:21 sec/100m 76 290 00:03:24 70 248 00:40:32 14.8 m/hr 30 132 00:01:43 101 343 00:21:31 11:19 min/m
67 227 Kavita MURTHY 263 01:16:38 40 153 00:08:23 2:05 sec/100m 86 348 00:03:41 55 190 00:39:28 15.2 m/hr 123 579 00:03:20 103 351 00:21:44 11:26 min/m
68 228 Erika RAMSEY 395 01:16:43 89 329 00:08:56 2:14 sec/100m 69 247 00:03:13 96 351 00:42:33 14.1 m/hr 93 429 00:02:37 57 178 00:19:22 10:12 min/m
69 231 Rebecca MARTINEZ 544 01:16:47 172 710 00:10:14 2:33 sec/100m 92 379 00:03:50 39 131 00:38:01 15.8 m/hr 57 252 00:02:05 114 406 00:22:34 11:53 min/m
70 234 Stacy CLARK 152 01:16:52 45 188 00:08:30 2:07 sec/100m 133 572 00:04:51 27 81 00:36:44 16.3 m/hr 134 632 00:03:36 124 447 00:23:10 12:11 min/m
71 236 Michelle LAFLURE 357 01:16:52 167 684 00:10:05 2:31 sec/100m 156 685 00:05:48 56 196 00:39:35 15.2 m/hr 105 495 00:02:56 40 116 00:18:26 9:42 min/m
72 242 Robyn LASSEN 9 01:17:01 38 147 00:08:21 2:05 sec/100m 136 586 00:04:56 94 349 00:42:33 14.1 m/hr 27 110 00:01:37 61 191 00:19:32 10:17 min/m
73 255 Natalie MILLER 73 01:17:22 28 108 00:08:14 2:03 sec/100m 139 612 00:05:10 26 80 00:36:43 16.3 m/hr 131 623 00:03:32 130 484 00:23:40 12:27 min/m
74 260 Kari DURONIO 111 01:17:36 23 80 00:08:08 2:02 sec/100m 128 555 00:04:45 69 241 00:40:24 14.8 m/hr 34 160 00:01:47 112 399 00:22:30 11:50 min/m
75 262 Melissa HOLMES 1154 01:17:37 153 603 00:09:44 2:26 sec/100m 160 708 00:06:08 84 299 00:41:24 14.5 m/hr 73 323 00:02:18 30 86 00:18:00 9:28 min/m
76 263 Yvette BARRERA 770 01:17:38 132 529 00:09:28 2:22 sec/100m 67 233 00:03:08 72 254 00:40:39 14.8 m/hr 58 253 00:02:05 108 385 00:22:15 11:43 min/m
77 266 Amy ENGALLINA 639 01:17:45 58 225 00:08:38 2:09 sec/100m 91 368 00:03:47 66 229 00:40:13 14.9 m/hr 146 681 00:04:00 92 309 00:21:05 11:05 min/m
78 270 Julie TUCKETT 606 01:17:59 61 233 00:08:40 2:10 sec/100m 65 228 00:03:07 108 425 00:44:25 13.5 m/hr 40 189 00:01:52 66 213 00:19:53 10:28 min/m
79 271 Anne SMITH 217 01:18:01 37 145 00:08:21 2:05 sec/100m 57 202 00:02:57 90 336 00:42:17 14.2 m/hr 115 545 00:03:10 95 325 00:21:15 11:11 min/m
80 274 Erika GARZA 648 01:18:10 142 572 00:09:37 2:24 sec/100m 116 492 00:04:20 74 263 00:40:44 14.7 m/hr 148 702 00:04:14 54 167 00:19:13 10:06 min/m
81 277 Jessica VASAN 426 01:18:24 32 121 00:08:17 2:04 sec/100m 43 142 00:02:38 83 294 00:41:17 14.5 m/hr 140 661 00:03:51 109 388 00:22:19 11:44 min/m
82 283 Elise BOLDT 622 01:18:35 131 526 00:09:27 2:21 sec/100m 113 487 00:04:20 42 147 00:38:22 15.6 m/hr 141 662 00:03:51 113 403 00:22:33 11:52 min/m
83 288 Tammie WARREN 222 01:18:45 59 226 00:08:38 2:09 sec/100m 104 459 00:04:14 102 372 00:43:03 13.9 m/hr 56 251 00:02:05 83 275 00:20:43 10:54 min/m
84 292 Corrie CHUMPITAZI 779 01:18:55 41 154 00:08:23 2:05 sec/100m 55 188 00:02:55 103 380 00:43:14 13.9 m/hr 28 113 00:01:37 115 418 00:22:44 11:57 min/m
85 294 Rebecca NGUYEN 68 01:19:05 47 196 00:08:31 2:07 sec/100m 47 158 00:02:44 81 288 00:41:11 14.6 m/hr 29 120 00:01:38 143 547 00:24:58 13:08 min/m
86 296 Kelly PINTO 392 01:19:06 14 50 00:07:46 1:56 sec/100m 81 308 00:03:29 99 360 00:42:44 14.0 m/hr 144 673 00:03:55 94 321 00:21:11 11:09 min/m
87 298 Amy VOORHEES 282 01:19:09 87 325 00:08:55 2:13 sec/100m 52 173 00:02:49 89 335 00:42:16 14.2 m/hr 26 103 00:01:35 127 471 00:23:32 12:23 min/m
88 299 Olivia MALOLES 371 01:19:10 79 306 00:08:53 2:13 sec/100m 54 185 00:02:54 104 393 00:43:34 13.8 m/hr 110 518 00:03:02 85 278 00:20:45 10:55 min/m
89 313 Sara MURPHY 676 01:19:34 152 602 00:09:44 2:26 sec/100m 71 265 00:03:17 101 369 00:42:58 14.0 m/hr 111 527 00:03:04 79 254 00:20:29 10:47 min/m
90 318 Karen PEARSON 821 01:19:55 77 283 00:08:48 2:12 sec/100m 83 317 00:03:32 95 350 00:42:33 14.1 m/hr 52 235 00:02:02 119 430 00:22:59 12:05 min/m
91 322 Faith AGUIRRE 290 01:20:05 113 425 00:09:10 2:17 sec/100m 53 182 00:02:53 59 203 00:39:47 15.1 m/hr 43 203 00:01:54 150 594 00:26:18 13:50 min/m
92 325 Anna NEAR 1109 01:20:07                                    
93 329 Amy OAKLEY 303 01:20:28 74 268 00:08:45 2:11 sec/100m 98 425 00:04:04 116 480 00:45:46 13.1 m/hr 42 196 00:01:54 67 217 00:19:57 10:30 min/m
94 333 Chysawndra SCHULTZ 837 01:20:42 55 216 00:08:36 2:09 sec/100m 115 490 00:04:20 68 235 00:40:18 14.9 m/hr 37 171 00:01:49 147 570 00:25:37 13:29 min/m
95 337 Sarah MILLER 376 01:20:58 91 334 00:08:57 2:14 sec/100m 25 70 00:02:07 105 411 00:44:00 13.6 m/hr 97 458 00:02:43 123 443 00:23:08 12:10 min/m
96 343 Billie ROTHWELL 208 01:21:14 141 567 00:09:37 2:24 sec/100m 134 580 00:04:54 123 505 00:46:23 12.9 m/hr 64 286 00:02:12 32 92 00:18:06 9:31 min/m
97 351 Amy SIEMSSEN 694 01:21:30 112 424 00:09:10 2:17 sec/100m 123 523 00:04:30 97 352 00:42:34 14.1 m/hr 63 282 00:02:12 121 434 00:23:02 12:07 min/m
98 353 Nicole FRANCIS 463 01:21:32 21 73 00:08:03 2:00 sec/100m 63 222 00:03:05 62 217 00:40:01 15.0 m/hr 185 830 00:11:25 50 151 00:18:56 9:58 min/m
99 367 Katy DWYER 1009 01:22:04 56 218 00:08:37 2:09 sec/100m 154 667 00:05:40 109 427 00:44:30 13.5 m/hr 46 215 00:01:56 96 330 00:21:18 11:12 min/m
100 382 Annie LATZIG JOHNSON 1161 01:22:50 70 256 00:08:43 2:10 sec/100m 106 469 00:04:16 87 319 00:41:57 14.3 m/hr 13 57 00:01:21 153 610 00:26:31 13:57 min/m
101 385 Peggy N Rudy FLORES 954 01:22:54 73 264 00:08:45 2:11 sec/100m 40 133 00:02:34 115 479 00:45:42 13.1 m/hr 51 232 00:02:01 133 490 00:23:50 12:32 min/m
102 392 Naomi HOUSE 794 01:23:17 143 578 00:09:39 2:24 sec/100m 66 230 00:03:08 128 538 00:47:13 12.7 m/hr 77 353 00:02:24 88 288 00:20:52 10:59 min/m
103 394 Lorri MORSE 197 01:23:19 108 403 00:09:07 2:16 sec/100m 88 358 00:03:44 110 428 00:44:31 13.5 m/hr 114 538 00:03:07 117 423 00:22:48 12:00 min/m
104 396 Katherine THOMPSON 420 01:23:28 130 519 00:09:26 2:21 sec/100m 165 732 00:06:25 47 167 00:38:55 15.4 m/hr 176 808 00:07:08 102 345 00:21:32 11:20 min/m
105 399 Lauren DELOZIER 157 01:23:30 138 551 00:09:33 2:23 sec/100m 162 727 00:06:21 100 362 00:42:48 14.0 m/hr 120 566 00:03:17 100 340 00:21:29 11:18 min/m
106 408 Laura ZUNKER 853 01:23:46 163 641 00:09:53 2:28 sec/100m 99 435 00:04:07 76 268 00:40:47 14.7 m/hr 161 772 00:05:16 131 486 00:23:41 12:28 min/m
107 409 Megan OBANION 81 01:23:47 50 203 00:08:32 2:08 sec/100m 166 738 00:06:32 65 222 00:40:07 15.0 m/hr 175 807 00:07:05 99 339 00:21:29 11:18 min/m
108 429 Imelda ESPINOZA 112 01:24:37 162 626 00:09:50 2:27 sec/100m 80 306 00:03:28 144 615 00:49:25 12.1 m/hr 75 339 00:02:22 60 188 00:19:31 10:16 min/m
109 438 Jaime KEY 910 01:24:54 102 375 00:09:03 2:15 sec/100m 164 729 00:06:23 107 422 00:44:22 13.5 m/hr 121 567 00:03:17 104 352 00:21:47 11:28 min/m
110 439 Sandi MANCHA 955 01:24:55 94 353 00:09:00 2:15 sec/100m 161 724 00:06:20 132 551 00:47:39 12.6 m/hr 60 267 00:02:07 65 211 00:19:48 10:25 min/m
111 441 Meredith GREEMAN 1150 01:24:58 118 474 00:09:19 2:19 sec/100m 132 569 00:04:50 139 574 00:48:04 12.5 m/hr 79 364 00:02:24 76 244 00:20:19 10:41 min/m
112 443 Rebecca SORENSON 1162 01:25:02 126 500 00:09:22 2:20 sec/100m 129 559 00:04:46 140 575 00:48:07 12.5 m/hr 82 376 00:02:26 75 242 00:20:18 10:41 min/m
113 446 Jessica TOOTLE 422 01:25:11 140 559 00:09:34 2:23 sec/100m 158 693 00:05:52 79 286 00:41:07 14.6 m/hr 183 825 00:09:35 51 155 00:19:01 10:00 min/m
114 448 Kylene CARSE 515 01:25:15 95 361 00:09:00 2:15 sec/100m 122 522 00:04:30 86 317 00:41:54 14.3 m/hr 173 804 00:06:42 122 439 00:23:06 12:09 min/m
115 449 Sarah FLORES 115 01:25:18 168 688 00:10:06 2:31 sec/100m 167 747 00:06:41 61 210 00:39:53 15.0 m/hr 178 811 00:07:37 90 300 00:20:59 11:02 min/m
116 450 Lexi BOWDEN 771 01:25:22 129 517 00:09:26 2:21 sec/100m 159 704 00:06:05 124 517 00:46:38 12.9 m/hr 90 417 00:02:34 82 267 00:20:38 10:51 min/m
117 454 Carolyn ECKOLS 1117 01:25:30 71 260 00:08:44 2:11 sec/100m 176 770 00:07:21 143 610 00:49:17 12.2 m/hr 122 568 00:03:17 14 33 00:16:48 8:50 min/m
118 456 Shealyn CYR 155 01:25:31 125 499 00:09:22 2:20 sec/100m 105 462 00:04:15 126 525 00:46:52 12.8 m/hr 165 787 00:05:42 56 173 00:19:19 10:10 min/m
119 459 Ally WALKER 431 01:25:37 22 77 00:08:06 2:01 sec/100m 70 262 00:03:17 141 588 00:48:36 12.3 m/hr 22 79 00:01:27 137 505 00:24:09 12:42 min/m
120 464 Carrie CLEWETT 456 01:25:44 93 350 00:08:59 2:14 sec/100m 140 617 00:05:15 85 304 00:41:31 14.4 m/hr 180 813 00:07:44 107 382 00:22:13 11:41 min/m
121 465 Heather KYSER 802 01:25:45 134 532 00:09:29 2:22 sec/100m 102 453 00:04:13 125 522 00:46:48 12.8 m/hr 166 788 00:05:49 58 180 00:19:24 10:13 min/m
122 474 Kelly Marie WILLIAMS 98 01:25:59 90 331 00:08:56 2:14 sec/100m 152 659 00:05:35 142 608 00:49:16 12.2 m/hr 92 423 00:02:35 62 193 00:19:34 10:18 min/m
123 485 Kelly KELLAR 180 01:26:31 104 377 00:09:03 2:15 sec/100m 169 749 00:06:44 64 221 00:40:06 15.0 m/hr 168 793 00:06:02 140 528 00:24:33 12:55 min/m
124 496 Cynthia PRINCIPE 875 01:26:55 164 653 00:09:56 2:29 sec/100m 62 220 00:03:04 93 348 00:42:32 14.1 m/hr 139 658 00:03:49 159 651 00:27:31 14:29 min/m
125 500 Reba MUSSEY 78 01:27:05 158 613 00:09:47 2:26 sec/100m 97 420 00:04:03 112 459 00:45:20 13.2 m/hr 125 593 00:03:24 139 520 00:24:29 12:53 min/m
126 505 Ethel KRUSE 869 01:27:13 110 410 00:09:08 2:17 sec/100m 174 767 00:07:11 121 503 00:46:22 12.9 m/hr 133 628 00:03:34 89 295 00:20:56 11:01 min/m
127 526 Lori FRERMAN 592 01:28:29 174 730 00:10:21 2:35 sec/100m 148 651 00:05:33 118 484 00:45:52 13.1 m/hr 153 740 00:04:37 106 369 00:22:05 11:37 min/m
128 529 Leanna THOMPSON 842 01:28:43 85 318 00:08:55 2:13 sec/100m 87 355 00:03:43 137 561 00:47:48 12.6 m/hr 135 634 00:03:36 141 534 00:24:40 12:59 min/m
129 531 Nicole SVENDSEN 419 01:28:45 145 583 00:09:40 2:25 sec/100m 157 692 00:05:52 135 558 00:47:44 12.6 m/hr 107 505 00:02:59 111 396 00:22:27 11:49 min/m
130 535 Monica SAENZ 1140 01:28:53 46 191 00:08:31 2:07 sec/100m 119 509 00:04:26 151 644 00:50:13 11.9 m/hr 95 446 00:02:40 120 432 00:23:01 12:07 min/m
131 538 Callie BUTLER 891 01:29:02 16 56 00:07:51 1:57 sec/100m 137 593 00:04:59 120 502 00:46:22 12.9 m/hr 117 549 00:03:11 154 613 00:26:38 14:01 min/m
132 552 Lori GONZALEZ VASQUEZ 1112 01:29:44 156 608 00:09:45 2:26 sec/100m 75 289 00:03:24 148 628 00:49:43 12.1 m/hr 41 192 00:01:53 142 546 00:24:57 13:08 min/m
133 562 Tammi BARNETT 140 01:30:19 160 621 00:09:48 2:27 sec/100m 163 728 00:06:22 113 465 00:45:28 13.2 m/hr 159 762 00:05:03 128 478 00:23:35 12:24 min/m
134 563 Asha WURDEMAN 347 01:30:23 136 547 00:09:32 2:23 sec/100m 100 448 00:04:12 152 645 00:50:13 11.9 m/hr 76 350 00:02:23 136 501 00:24:02 12:38 min/m
135 566 Mindy DE LA CRUZ 315 01:30:30 67 252 00:08:42 2:10 sec/100m 118 496 00:04:21 169 723 00:54:15 11.1 m/hr 74 335 00:02:21 86 282 00:20:49 10:57 min/m
136 569 Maria PEDRAZA 1166 01:30:45 173 716 00:10:16 2:34 sec/100m 126 542 00:04:38 164 708 00:53:13 11.3 m/hr 88 405 00:02:32 70 225 00:20:04 10:34 min/m
137 571 Brandi HOWARD 909 01:30:46 106 394 00:09:06 2:16 sec/100m 96 415 00:04:02 167 717 00:53:37 11.2 m/hr 138 655 00:03:47 74 238 00:20:12 10:38 min/m
138 573 Ashley NICHOLSON 659 01:30:49 84 317 00:08:54 2:13 sec/100m 107 473 00:04:16 122 504 00:46:22 12.9 m/hr 137 653 00:03:46 157 646 00:27:28 14:27 min/m
139 576 Gloria FLORES 1014 01:31:00 144 579 00:09:39 2:24 sec/100m 125 537 00:04:36 114 478 00:45:42 13.1 m/hr 130 620 00:03:31 158 647 00:27:30 14:28 min/m
140 579 Celeste HERNANDEZ 345 01:31:10 98 365 00:09:01 2:15 sec/100m 20 53 00:01:58 149 629 00:49:44 12.1 m/hr 96 454 00:02:42 164 662 00:27:44 14:35 min/m
141 580 Latrenda WARE 434 01:31:12 169 690 00:10:07 2:31 sec/100m 172 764 00:07:04 54 188 00:39:27 15.2 m/hr 149 710 00:04:20 173 735 00:30:11 15:53 min/m
142 585 Jenni DETTON 635 01:31:31 147 585 00:09:40 2:25 sec/100m 150 654 00:05:34 133 555 00:47:43 12.6 m/hr 164 786 00:05:35 118 428 00:22:57 12:04 min/m
143 591 Regina CARMONA 1126 01:31:53 133 530 00:09:29 2:22 sec/100m 182 797 00:08:03 129 540 00:47:17 12.7 m/hr 154 745 00:04:44 110 389 00:22:19 11:44 min/m
144 593 Juliet PRIDEMORE 562 01:32:01 80 307 00:08:53 2:13 sec/100m 183 800 00:08:06 171 732 00:54:57 10.9 m/hr 118 559 00:03:14 15 34 00:16:49 8:51 min/m
145 606 Jennifer MACLEOD 809 01:32:55 99 367 00:09:02 2:15 sec/100m 141 620 00:05:17 146 624 00:49:38 12.1 m/hr 156 754 00:04:58 135 498 00:23:59 12:37 min/m
146 608 Andrea MIKESKA 103 01:33:02 115 434 00:09:12 2:18 sec/100m 143 625 00:05:20 130 543 00:47:23 12.7 m/hr 177 809 00:07:09 134 496 00:23:56 12:36 min/m
147 619 Gina GARZA 5 01:33:21 92 344 00:08:59 2:14 sec/100m 180 790 00:07:52 145 622 00:49:34 12.1 m/hr 158 760 00:05:02 105 357 00:21:53 11:31 min/m
148 626 Christina LIN 363 01:33:43 60 230 00:08:39 2:09 sec/100m 1 2 00:01:06 159 692 00:52:30 11.4 m/hr 136 650 00:03:45 163 659 00:27:41 14:34 min/m
149 628 Kyla LONGE 741 01:33:53 117 460 00:09:17 2:19 sec/100m 111 485 00:04:19 111 441 00:44:52 13.4 m/hr 147 689 00:04:07 177 752 00:31:17 16:28 min/m
150 630 Celia CASOLARI 517 01:33:59 124 492 00:09:22 2:20 sec/100m 109 480 00:04:18 150 634 00:49:56 12.0 m/hr 112 529 00:03:04 155 640 00:27:17 14:21 min/m
151 635 Jessica LEWIS 670 01:34:12 179 801 00:11:03 2:45 sec/100m 114 489 00:04:20 136 559 00:47:44 12.6 m/hr 162 780 00:05:26 146 569 00:25:37 13:28 min/m
152 639 Marisol RAMOS 1040 01:34:32 83 311 00:08:54 2:13 sec/100m 144 626 00:05:21 138 569 00:47:54 12.5 m/hr 53 243 00:02:03 174 736 00:30:17 15:56 min/m
153 645 Erika VELAZQUEZ 136 01:34:46 178 794 00:10:55 2:43 sec/100m 60 216 00:03:03 165 709 00:53:16 11.3 m/hr 66 292 00:02:13 144 560 00:25:17 13:18 min/m
154 648 Janine STOTZ 277 01:35:03 146 584 00:09:40 2:25 sec/100m 78 296 00:03:26 156 670 00:51:28 11.7 m/hr 100 472 00:02:47 162 657 00:27:40 14:33 min/m
155 652 Stacy ORLOWSKY 551 01:35:11 175 742 00:10:27 2:36 sec/100m 178 776 00:07:28 134 556 00:47:43 12.6 m/hr 169 795 00:06:06 126 464 00:23:25 12:19 min/m
156 653 Anita POMPA 985 01:35:15 135 544 00:09:31 2:22 sec/100m 146 634 00:05:25 172 739 00:55:47 10.8 m/hr 150 715 00:04:24 71 227 00:20:06 10:34 min/m
157 665 Judy WENG 583 01:35:40                                    
158 669 Manasi PANDYA 82 01:35:45 109 409 00:09:08 2:17 sec/100m 117 495 00:04:21 160 697 00:52:53 11.3 m/hr 101 483 00:02:50 152 608 00:26:31 13:57 min/m
159 670 Monica GONZALES 1160 01:35:46 75 271 00:08:47 2:11 sec/100m 177 771 00:07:22 127 534 00:47:03 12.7 m/hr 182 819 00:08:52 129 483 00:23:40 12:27 min/m
160 672 Divya REDDY 89 01:35:46 121 482 00:09:20 2:20 sec/100m 108 478 00:04:17 163 706 00:53:11 11.3 m/hr 84 387 00:02:28 151 605 00:26:28 13:55 min/m
161 675 Jenny PLACETTE 600 01:36:14 176 764 00:10:36 2:39 sec/100m 131 564 00:04:49 119 485 00:45:54 13.1 m/hr 132 627 00:03:34 178 753 00:31:20 16:29 min/m
162 679 Season MUSSEY 77 01:37:01 122 486 00:09:21 2:20 sec/100m 110 483 00:04:18 157 678 00:51:55 11.6 m/hr 116 546 00:03:10 166 684 00:28:15 14:52 min/m
163 680 Jamie FRAZIER 327 01:37:16 181 815 00:11:26 2:51 sec/100m 135 584 00:04:55 131 545 00:47:26 12.6 m/hr 145 679 00:03:59 169 724 00:29:28 15:30 min/m
164 684 Andy AGUIRRE 201 01:37:25 100 369 00:09:02 2:15 sec/100m 77 294 00:03:25 155 659 00:50:53 11.8 m/hr 106 496 00:02:56 176 748 00:31:07 16:22 min/m
165 685 Michelle PETERSON 823 01:37:29 149 589 00:09:41 2:25 sec/100m 145 631 00:05:23 174 750 00:57:19 10.5 m/hr 142 671 00:03:53 93 317 00:21:10 11:08 min/m
166 695 Erin STINSON 1048 01:38:51 65 245 00:08:41 2:10 sec/100m 95 402 00:03:56 154 650 00:50:27 11.9 m/hr 127 604 00:03:27 181 770 00:32:17 16:59 min/m
167 702 Rebecca MITCHAM 261 01:39:26 97 364 00:09:01 2:15 sec/100m 138 607 00:05:06 153 649 00:50:26 11.9 m/hr 91 419 00:02:34 180 769 00:32:16 16:59 min/m
168 720 Cristina GIL 332 01:41:12 52 210 00:08:34 2:08 sec/100m 168 748 00:06:44 166 716 00:53:35 11.2 m/hr 170 796 00:06:19 149 583 00:25:58 13:40 min/m
169 721 Sheetal PATEL 820 01:41:15 154 604 00:09:44 2:26 sec/100m 147 650 00:05:32 158 691 00:52:28 11.4 m/hr 184 826 00:09:39 132 489 00:23:49 12:32 min/m
170 724 Erika HUERTA 656 01:41:17 82 310 00:08:53 2:13 sec/100m 112 486 00:04:19 176 765 00:58:41 10.2 m/hr 35 167 00:01:48 160 652 00:27:33 14:30 min/m
171 726 April LEE 545 01:41:42 157 609 00:09:46 2:26 sec/100m 173 765 00:07:09 168 718 00:53:45 11.2 m/hr 78 361 00:02:24 167 701 00:28:36 15:03 min/m
172 728 Lien NGUYEN-PHUOC 550 01:43:19 86 323 00:08:55 2:13 sec/100m 74 274 00:03:20 178 778 01:01:23 9.8 m/hr 49 223 00:01:59 161 656 00:27:39 14:33 min/m
173 733 Sandy NGUYEN 1133 01:43:42 123 487 00:09:21 2:20 sec/100m 175 768 00:07:17 106 413 00:44:04 13.6 m/hr 160 764 00:05:04 184 822 00:37:54 19:56 min/m
174 740 Rupa SHAH 691 01:44:33 184 830 00:13:16 3:19 sec/100m 93 380 00:03:51 170 727 00:54:36 11.0 m/hr 99 470 00:02:47 172 734 00:30:02 15:48 min/m
175 741 Ekta POPAT 86 01:44:41 148 588 00:09:41 2:25 sec/100m 179 783 00:07:39 147 626 00:49:40 12.1 m/hr 179 812 00:07:37 171 733 00:30:02 15:48 min/m
176 742 Lorena HERNANDEZ 1151 01:44:49 180 807 00:11:12 2:48 sec/100m 151 657 00:05:35 175 754 00:57:47 10.4 m/hr 155 746 00:04:45 145 565 00:25:27 13:23 min/m
177 750 Carly GREEN 167 01:46:02 185 835 00:35:29 8:52 sec/100m 130 561 00:04:47 88 324 00:42:05 14.3 m/hr 128 612 00:03:29 72 235 00:20:11 10:37 min/m
178 761 Tiffany PARKERSON 682 01:46:45 166 670 00:10:01 2:30 sec/100m 127 544 00:04:39 162 705 00:53:09 11.3 m/hr 113 531 00:03:05 183 810 00:35:49 18:51 min/m
179 767 Alysia WEST 440 01:47:28 183 829 00:13:10 3:17 sec/100m 84 327 00:03:33 177 769 00:58:53 10.2 m/hr 104 490 00:02:53 168 710 00:28:57 15:14 min/m
180 774 Paula PARIKH 1036 01:48:41 177 792 00:10:54 2:43 sec/100m 155 669 00:05:42 173 746 00:56:44 10.6 m/hr 181 814 00:07:52 156 645 00:27:27 14:27 min/m
181 777 Belinda SALDANA 763 01:49:52 159 620 00:09:48 2:27 sec/100m 153 665 00:05:40 179 784 01:01:57 9.7 m/hr 98 469 00:02:46 170 729 00:29:38 15:36 min/m
182 784 Rhonda LAHTI 668 01:51:38 182 825 00:12:01 3:00 sec/100m 170 759 00:06:57 161 703 00:53:06 11.3 m/hr 157 758 00:05:00 182 803 00:34:32 18:10 min/m
183 821 Jenny GONZALEZ 336 02:02:12 170 696 00:10:08 2:32 sec/100m 171 760 00:06:58 180 808 01:07:29 8.9 m/hr 163 785 00:05:34 179 761 00:32:00 16:50 min/m
184 825 Vinu SISTA 928 02:05:23 150 592 00:09:42 2:25 sec/100m 184 835 00:15:32 182 818 01:10:17 8.5 m/hr 172 801 00:06:28 125 458 00:23:21 12:17 min/m
185 834 Richi CHAUDHRY 961 02:07:34 139 554 00:09:33 2:23 sec/100m 185 836 00:15:36 183 819 01:10:22 8.5 m/hr 171 798 00:06:21 148 573 00:25:39 13:30 min/m
186 835 Tammy HOESE 1164 02:07:50 151 596 00:09:43 2:25 sec/100m 142 623 00:05:18 184 831 01:17:37 7.7 m/hr 152 730 00:04:31 175 742 00:30:38 16:07 min/m
187 836 Laura TIERNAN 280 02:07:50 171 704 00:10:12 2:33 sec/100m 149 653 00:05:33 181 814 01:09:55 8.6 m/hr 103 487 00:02:52 185 827 00:39:17 20:40 min/m
188 841 Trini ARGUIJO 1 02:10:41 161 624 00:09:49 2:27 sec/100m 181 792 00:07:53 185 833 01:19:00 7.6 m/hr 167 789 00:05:49 165 678 00:28:08 14:48 min/m
Ages 40 - 44
1 6 Sharon BEDFORD 451 00:58:17 16 104 00:08:12 2:03 sec/100m 6 34 00:01:50 1 3 00:30:34 19.6 m/hr 32 177 00:01:50 1 15 00:15:49 8:19 min/m
2 21 Kelly LYONS 543 01:02:58 5 35 00:07:32 1:53 sec/100m 15 104 00:02:19 3 31 00:34:33 17.4 m/hr 5 35 00:01:14 7 53 00:17:19 9:07 min/m
3 31 Kathleen HAMILTON 245 01:04:38 9 48 00:07:44 1:56 sec/100m 58 319 00:03:32 2 26 00:33:54 17.7 m/hr 72 384 00:02:28 4 39 00:16:58 8:55 min/m
4 40 Sharon SANCHEZ 209 01:05:25 20 124 00:08:18 2:04 sec/100m 3 18 00:01:31 19 107 00:37:26 16.0 m/hr 8 56 00:01:21 3 32 00:16:47 8:50 min/m
5 42 Dana FARRAR 114 01:05:48 22 128 00:08:19 2:04 sec/100m 5 32 00:01:46 4 35 00:34:48 17.2 m/hr 57 295 00:02:13 19 130 00:18:41 9:50 min/m
6 45 Katy SEMENTELLI 746 01:06:04 4 29 00:07:29 1:52 sec/100m 75 393 00:03:53 10 56 00:35:42 16.8 m/hr 56 294 00:02:13 2 31 00:16:45 8:49 min/m
7 47 Carie MORALES 76 01:06:14 7 38 00:07:33 1:53 sec/100m 23 132 00:02:32 18 101 00:37:17 16.1 m/hr 1 3 00:00:51 11 85 00:17:59 9:28 min/m
8 54 Jennifer TELLEPSEN 134 01:06:44 3 26 00:07:28 1:52 sec/100m 28 161 00:02:45 12 65 00:36:03 16.6 m/hr 30 172 00:01:49 17 128 00:18:37 9:48 min/m
9 55 Edith ELLORIMO 590 01:06:58 77 416 00:09:09 2:17 sec/100m 9 52 00:01:58 8 48 00:35:27 16.9 m/hr 26 153 00:01:46 16 127 00:18:36 9:47 min/m
10 58 Julie WILLIFORD 225 01:07:46 2 19 00:07:15 1:48 sec/100m 1 11 00:01:22 22 132 00:38:01 15.8 m/hr 28 164 00:01:48 28 171 00:19:18 10:09 min/m
11 60 Alice ECHEVARRIA 781 01:07:48 18 114 00:08:15 2:03 sec/100m 10 65 00:02:03 25 151 00:38:27 15.6 m/hr 4 30 00:01:11 10 79 00:17:50 9:23 min/m
12 61 Gracie ZARATE 449 01:07:48 43 236 00:08:40 2:10 sec/100m 26 150 00:02:41 20 108 00:37:27 16.0 m/hr 27 157 00:01:46 5 47 00:17:12 9:03 min/m
13 79 Lindy HARDIN 532 01:09:00 55 304 00:08:53 2:13 sec/100m 12 94 00:02:15 14 74 00:36:24 16.5 m/hr 51 257 00:02:05 29 175 00:19:20 10:10 min/m
14 89 Nickie HAINE 652 01:09:38 14 94 00:08:11 2:02 sec/100m 60 326 00:03:33 26 154 00:38:33 15.6 m/hr 15 94 00:01:33 9 76 00:17:46 9:21 min/m
15 94 Yvette TREADAWAY 135 01:09:56 109 571 00:09:37 2:24 sec/100m 7 43 00:01:55 13 66 00:36:05 16.6 m/hr 60 313 00:02:17 39 222 00:20:01 10:32 min/m
16 106 Misti SCHROLL 488 01:10:33 19 123 00:08:18 2:04 sec/100m 41 221 00:03:05 7 39 00:35:02 17.1 m/hr 94 498 00:02:56 63 318 00:21:10 11:08 min/m
17 108 Jennifer GALYSH 646 01:10:37 26 139 00:08:21 2:05 sec/100m 45 246 00:03:12 6 38 00:34:54 17.2 m/hr 95 503 00:02:58 61 315 00:21:10 11:08 min/m
18 111 Michelle JONES 536 01:10:44 32 168 00:08:26 2:06 sec/100m 46 248 00:03:13 5 37 00:34:53 17.2 m/hr 96 504 00:02:58 64 322 00:21:11 11:09 min/m
19 113 Amanda VOLZ 281 01:10:50 38 219 00:08:37 2:09 sec/100m 44 235 00:03:09 11 60 00:35:55 16.7 m/hr 46 234 00:02:01 56 310 00:21:06 11:06 min/m
20 126 Starrla RODRIGUEZ 603 01:11:31 82 430 00:09:11 2:17 sec/100m 17 124 00:02:29 27 159 00:38:45 15.5 m/hr 42 226 00:01:59 25 159 00:19:05 10:02 min/m
21 129 Ali CHIOMARINES 630 01:11:41 69 382 00:09:04 2:16 sec/100m 20 128 00:02:29 50 260 00:40:42 14.7 m/hr 40 206 00:01:55 8 60 00:17:28 9:11 min/m
22 130 Rita JONAS 177 01:11:42 87 453 00:09:16 2:19 sec/100m 8 44 00:01:55 9 50 00:35:33 16.9 m/hr 29 166 00:01:48 84 440 00:23:07 12:10 min/m
23 133 Diana MADRID 368 01:11:44 65 349 00:08:59 2:14 sec/100m 24 143 00:02:38 44 243 00:40:27 14.8 m/hr 2 22 00:01:07 15 118 00:18:31 9:44 min/m
24 135 Kristine PARKERSON 269 01:11:51 79 418 00:09:10 2:17 sec/100m 67 365 00:03:46 16 87 00:36:49 16.3 m/hr 79 434 00:02:38 32 184 00:19:27 10:14 min/m
25 136 Melissa CHESHIER 519 01:11:53 8 41 00:07:37 1:54 sec/100m 2 17 00:01:31 67 364 00:42:54 14.0 m/hr 3 24 00:01:08 20 132 00:18:42 9:50 min/m
26 139 Gina TREVINO-KUKAL 495 01:12:05 78 417 00:09:10 2:17 sec/100m 34 192 00:02:55 30 173 00:39:03 15.4 m/hr 83 450 00:02:41 14 102 00:18:14 9:36 min/m
27 144 Stacey YORK 584 01:12:17 72 389 00:09:05 2:16 sec/100m 110 589 00:04:57 17 89 00:36:53 16.3 m/hr 76 411 00:02:33 21 138 00:18:47 9:53 min/m
28 145 Becky ORTIZ 549 01:12:18 29 163 00:08:25 2:06 sec/100m 4 26 00:01:43 29 170 00:38:59 15.4 m/hr 59 305 00:02:15 52 292 00:20:54 11:00 min/m
29 152 Micki BURNS 454 01:12:31 13 76 00:08:06 2:01 sec/100m 38 209 00:03:01 37 209 00:39:52 15.0 m/hr 68 359 00:02:24 26 160 00:19:06 10:03 min/m
30 154 Nicola FAROPPA 640 01:12:34 96 503 00:09:24 2:21 sec/100m 13 100 00:02:17 24 137 00:38:09 15.7 m/hr 22 141 00:01:44 54 301 00:20:59 11:02 min/m
31 156 Stephanie ROBERTS 397 01:12:41 1 10 00:07:06 1:46 sec/100m 105 554 00:04:45 23 134 00:38:02 15.8 m/hr 7 46 00:01:18 67 338 00:21:28 11:18 min/m
32 169 Emily MIR 919 01:13:32 24 131 00:08:19 2:04 sec/100m 51 279 00:03:22 36 206 00:39:51 15.1 m/hr 103 540 00:03:08 24 143 00:18:50 9:55 min/m
33 174 Jennifer SALAMON 404 01:13:42 115 622 00:09:49 2:27 sec/100m 49 261 00:03:16 46 249 00:40:34 14.8 m/hr 6 38 00:01:14 22 140 00:18:48 9:53 min/m
34 176 Amy SAENZ 1049 01:13:45 35 199 00:08:32 2:08 sec/100m 43 225 00:03:06 48 257 00:40:40 14.7 m/hr 45 231 00:02:01 30 181 00:19:25 10:13 min/m
35 180 Shala PAYNE 482 01:13:58 60 336 00:08:57 2:14 sec/100m 36 203 00:02:57 21 123 00:37:50 15.9 m/hr 112 592 00:03:24 50 281 00:20:47 10:56 min/m
36 183 Dawn PRESTON 484 01:14:11 56 314 00:08:54 2:13 sec/100m 29 164 00:02:46 31 175 00:39:06 15.3 m/hr 33 180 00:01:51 69 347 00:21:33 11:20 min/m
37 188 Crystal UZQUIANO 425 01:14:40 67 363 00:09:01 2:15 sec/100m 27 160 00:02:45 39 218 00:40:03 15.0 m/hr 89 484 00:02:50 38 220 00:20:00 10:31 min/m
38 191 Lauren ZIFF 585 01:14:49 27 160 00:08:24 2:06 sec/100m 40 214 00:03:03 55 301 00:41:27 14.5 m/hr 37 200 00:01:54 37 219 00:19:59 10:31 min/m
39 202 Julie SILHAN 577 01:15:17 23 129 00:08:19 2:04 sec/100m 56 310 00:03:30 58 308 00:41:35 14.4 m/hr 19 124 00:01:40 42 236 00:20:11 10:37 min/m
40 203 Sara PATTERSON 683 01:15:24 74 398 00:09:06 2:16 sec/100m 71 383 00:03:52 41 233 00:40:17 14.9 m/hr 84 452 00:02:42 31 182 00:19:26 10:13 min/m
41 205 Wendy MULHOLLAND 480 01:15:28 84 443 00:09:15 2:18 sec/100m 70 376 00:03:49 60 318 00:41:54 14.3 m/hr 18 119 00:01:38 23 141 00:18:49 9:54 min/m
42 210 Amanda AUSTIN 105 01:15:45 39 220 00:08:37 2:09 sec/100m 77 404 00:03:57 38 215 00:39:56 15.0 m/hr 35 187 00:01:52 65 333 00:21:21 11:14 min/m
43 212 Shakti DALAL 732 01:15:46 108 566 00:09:36 2:24 sec/100m 33 191 00:02:55 40 223 00:40:08 14.9 m/hr 75 409 00:02:32 44 258 00:20:33 10:48 min/m
44 218 Kimberly ANZALDUA 616 01:15:58 63 342 00:08:58 2:14 sec/100m 21 130 00:02:29 28 160 00:38:45 15.5 m/hr 50 254 00:02:05 91 482 00:23:38 12:26 min/m
45 232 Kimberly KNOWLTON 801 01:16:48 25 137 00:08:20 2:05 sec/100m 22 131 00:02:30 73 379 00:43:14 13.9 m/hr 16 98 00:01:33 59 313 00:21:09 11:07 min/m
46 239 Jenna NEAL 923 01:16:55 50 278 00:08:47 2:11 sec/100m 92 503 00:04:24 43 239 00:40:24 14.9 m/hr 111 589 00:03:24 35 214 00:19:54 10:28 min/m
47 244 Leslie ZAMORA 99 01:17:02 111 586 00:09:41 2:25 sec/100m 82 444 00:04:10 70 371 00:43:03 13.9 m/hr 88 477 00:02:48 6 52 00:17:18 9:06 min/m
48 248 Elizabeth GONZALEZ 244 01:17:11 140 741 00:10:27 2:36 sec/100m 31 172 00:02:49 56 302 00:41:28 14.5 m/hr 11 64 00:01:24 55 304 00:21:01 11:04 min/m
49 253 Faye JACKSON 470 01:17:21 71 387 00:09:05 2:16 sec/100m 72 386 00:03:52 54 300 00:41:25 14.5 m/hr 97 515 00:03:01 36 215 00:19:55 10:29 min/m
50 256 Veeta VAUGHN 750 01:17:26 100 513 00:09:25 2:21 sec/100m 25 149 00:02:40 47 255 00:40:40 14.8 m/hr 69 375 00:02:26 76 380 00:22:12 11:41 min/m
51 267 Janelle EVANS LANDRY 320 01:17:46 33 170 00:08:27 2:06 sec/100m 98 534 00:04:35 33 187 00:39:26 15.2 m/hr 133 728 00:04:31 49 277 00:20:45 10:55 min/m
52 268 Michelle PHELPS 132 01:17:49 37 209 00:08:34 2:08 sec/100m 99 536 00:04:35 35 200 00:39:39 15.1 m/hr 129 705 00:04:17 47 271 00:20:41 10:53 min/m
53 284 Crystal SCULLION 572 01:18:39 36 207 00:08:34 2:08 sec/100m 86 463 00:04:15 71 373 00:43:04 13.9 m/hr 48 239 00:02:03 48 273 00:20:42 10:53 min/m
54 297 Alison RICHARDSON 486 01:19:09 51 288 00:08:49 2:12 sec/100m 97 533 00:04:35 63 343 00:42:25 14.1 m/hr 63 341 00:02:22 53 293 00:20:56 11:01 min/m
55 311 Emmanuelle CAHANE 587 01:19:28 83 437 00:09:13 2:18 sec/100m 69 371 00:03:48 42 234 00:40:17 14.9 m/hr 12 72 00:01:26 105 536 00:24:42 13:00 min/m
56 312 Michelle ELLIS 319 01:19:33 45 240 00:08:41 2:10 sec/100m 32 178 00:02:51 52 283 00:41:01 14.6 m/hr 49 242 00:02:03 108 541 00:24:55 13:06 min/m
57 316 Leslie RHAME 828 01:19:44 86 447 00:09:16 2:19 sec/100m 126 652 00:05:33 49 259 00:40:41 14.7 m/hr 109 574 00:03:19 51 290 00:20:53 10:59 min/m
58 326 Shelley HAWKINS 594 01:20:16 49 275 00:08:47 2:11 sec/100m 18 126 00:02:29 66 363 00:42:50 14.0 m/hr 66 345 00:02:23 92 487 00:23:45 12:30 min/m
59 328 Erika BENFIELD 297 01:20:18 17 111 00:08:14 2:03 sec/100m 11 92 00:02:14 68 367 00:42:57 14.0 m/hr 64 342 00:02:22 102 522 00:24:29 12:53 min/m
60 330 Viviana DENECHAUD 965 01:20:28 118 634 00:09:51 2:27 sec/100m 148 816 00:08:59 34 189 00:39:28 15.2 m/hr 91 489 00:02:53 27 169 00:19:15 10:08 min/m
61 331 Mary Joy HAMISCH 246 01:20:28 53 298 00:08:51 2:12 sec/100m 16 120 00:02:27 69 368 00:42:57 14.0 m/hr 21 128 00:01:41 103 525 00:24:30 12:53 min/m
62 335 Yvette MEADE 758 01:20:54 106 546 00:09:31 2:22 sec/100m 39 210 00:03:01 53 292 00:41:16 14.5 m/hr 130 713 00:04:22 78 415 00:22:42 11:56 min/m
63 342 Michell BEALS 508 01:21:12 105 539 00:09:31 2:22 sec/100m 35 197 00:02:56 32 180 00:39:13 15.3 m/hr 125 668 00:03:53 112 572 00:25:38 13:29 min/m
64 345 Carrie CLEMONS 153 01:21:19 121 646 00:09:54 2:28 sec/100m 37 208 00:03:01 75 407 00:43:49 13.7 m/hr 105 548 00:03:10 66 335 00:21:22 11:14 min/m
65 358 Amanda PENALOZA 270 01:21:42 119 637 00:09:52 2:28 sec/100m 19 127 00:02:29 99 524 00:46:50 12.8 m/hr 43 227 00:02:00 43 256 00:20:30 10:47 min/m
66 359 Rebecca SPIEKERMAN 552 01:21:46 95 495 00:09:22 2:20 sec/100m 117 606 00:05:05 57 305 00:41:31 14.4 m/hr 20 126 00:01:41 99 503 00:24:05 12:40 min/m
67 361 Katherine BURT 233 01:21:50                                    
68 376 Lori CASHMAN 777 01:22:28 120 638 00:09:53 2:28 sec/100m 90 494 00:04:21 110 581 00:48:18 12.4 m/hr 24 146 00:01:45 13 98 00:18:10 9:33 min/m
69 377 Angela PENA 1172 01:22:32 81 421 00:09:10 2:17 sec/100m 68 367 00:03:47 83 449 00:45:13 13.3 m/hr 104 544 00:03:09 62 316 00:21:10 11:08 min/m
70 379 Karalee GATLIN 527 01:22:40 76 412 00:09:09 2:17 sec/100m 50 271 00:03:19 87 456 00:45:19 13.2 m/hr 53 273 00:02:09 79 416 00:22:42 11:57 min/m
71 380 Victoria BARRIENTES-LUNA 506 01:22:42 40 222 00:08:37 2:09 sec/100m 47 250 00:03:14 108 577 00:48:10 12.5 m/hr 14 87 00:01:31 60 314 00:21:09 11:08 min/m
72 383 Jessica HERAS 533 01:22:51 114 618 00:09:48 2:27 sec/100m 59 321 00:03:33 80 436 00:44:39 13.4 m/hr 127 698 00:04:12 46 266 00:20:38 10:51 min/m
73 387 Molly KALINEC 124 01:22:55 129 683 00:10:05 2:31 sec/100m 66 354 00:03:42 61 331 00:42:15 14.2 m/hr 121 637 00:03:38 86 452 00:23:13 12:13 min/m
74 388 Melissa GARZA 164 01:22:58 91 462 00:09:17 2:19 sec/100m 78 410 00:03:59 81 440 00:44:50 13.4 m/hr 41 207 00:01:55 81 425 00:22:54 12:03 min/m
75 389 Jennifer JAROSZEWSKI 798 01:23:02 44 238 00:08:40 2:10 sec/100m 81 426 00:04:05 115 603 00:49:06 12.2 m/hr 73 385 00:02:28 18 129 00:18:40 9:49 min/m
76 393 Monica CLARKE 107 01:23:17 10 52 00:07:46 1:56 sec/100m 48 255 00:03:15 102 552 00:47:40 12.6 m/hr 99 523 00:03:03 68 344 00:21:32 11:20 min/m
77 397 Claire MANSOUR 10 01:23:29 89 456 00:09:16 2:19 sec/100m 96 531 00:04:33 97 515 00:46:36 12.9 m/hr 39 204 00:01:55 58 312 00:21:08 11:07 min/m
78 404 Ricarda DIETSCH 459 01:23:40 93 479 00:09:19 2:19 sec/100m 111 598 00:05:00 91 475 00:45:40 13.1 m/hr 118 618 00:03:31 40 229 00:20:08 10:36 min/m
79 407 Sandrine CLARDY 896 01:23:45 97 506 00:09:24 2:21 sec/100m 113 600 00:05:02 76 415 00:44:07 13.6 m/hr 139 759 00:05:02 41 232 00:20:09 10:36 min/m
80 412 Amy ROBERTS 1001 01:23:54 34 183 00:08:29 2:07 sec/100m 102 548 00:04:42 103 553 00:47:41 12.6 m/hr 36 197 00:01:54 57 311 00:21:06 11:06 min/m
81 416 Natalie BOCK 231 01:23:58 62 341 00:08:58 2:14 sec/100m 65 346 00:03:40 124 651 00:50:29 11.9 m/hr 10 59 00:01:22 33 185 00:19:27 10:14 min/m
82 417 Jennifer PAWLING 389 01:23:58 31 167 00:08:26 2:06 sec/100m 74 390 00:03:52 65 354 00:42:37 14.1 m/hr 62 338 00:02:21 123 617 00:26:39 14:01 min/m
83 425 Kristin BUSSEY-SMITH 1143 01:24:27 42 232 00:08:40 2:10 sec/100m 107 565 00:04:49 62 342 00:42:25 14.1 m/hr 135 743 00:04:40 95 492 00:23:51 12:33 min/m
84 428 Alicia FRANK 162 01:24:35 6 37 00:07:33 1:53 sec/100m 83 445 00:04:10 134 698 00:52:58 11.3 m/hr 25 149 00:01:45 12 95 00:18:07 9:32 min/m
85 431 Kelly MARWILL 372 01:24:40 70 385 00:09:05 2:16 sec/100m 80 424 00:04:04 92 494 00:46:01 13.0 m/hr 77 426 00:02:36 80 424 00:22:53 12:02 min/m
86 433 Rebecca KUMAR 473 01:24:45 58 319 00:08:55 2:13 sec/100m 89 481 00:04:18 72 375 00:43:09 13.9 m/hr 122 640 00:03:40 104 535 00:24:42 13:00 min/m
87 442 Lisa OBSHEATZ 202 01:25:00 15 101 00:08:12 2:03 sec/100m 136 721 00:06:19 74 398 00:43:36 13.8 m/hr 113 594 00:03:24 89 466 00:23:27 12:20 min/m
88 453 Cameron ARMSTRONG 1116 01:25:26 68 380 00:09:03 2:15 sec/100m 79 419 00:04:03 51 262 00:40:43 14.7 m/hr 147 810 00:07:13 100 514 00:24:22 12:49 min/m
89 460 Amy FULLER 865 01:25:38 47 258 00:08:44 2:11 sec/100m 63 337 00:03:35 85 452 00:45:15 13.3 m/hr 31 175 00:01:50 119 589 00:26:12 13:47 min/m
90 468 Heike MURPHY 262 01:25:53 107 553 00:09:33 2:23 sec/100m 112 599 00:05:00 106 563 00:47:49 12.5 m/hr 90 488 00:02:52 45 263 00:20:36 10:50 min/m
91 473 Susan MILLS 377 01:25:59 92 469 00:09:18 2:19 sec/100m 61 329 00:03:34 79 424 00:44:25 13.5 m/hr 92 491 00:02:54 113 576 00:25:46 13:34 min/m
92 475 Sharlean SCHAEFER 274 01:26:00 130 693 00:10:08 2:32 sec/100m 100 538 00:04:37 101 537 00:47:12 12.7 m/hr 38 202 00:01:54 74 374 00:22:07 11:38 min/m
93 477 Maricelle THORNTON 702 01:26:02 61 340 00:08:58 2:14 sec/100m 30 171 00:02:49 86 455 00:45:18 13.2 m/hr 34 182 00:01:51 125 633 00:27:04 14:15 min/m
94 483 Mary Beth CARNATHAN 514 01:26:28 94 480 00:09:19 2:19 sec/100m 73 387 00:03:52 78 423 00:44:23 13.5 m/hr 86 461 00:02:44 117 587 00:26:08 13:45 min/m
95 484 Helen HUTCHINSON 657 01:26:31 141 750 00:10:31 2:37 sec/100m 62 336 00:03:35 64 353 00:42:35 14.1 m/hr 138 751 00:04:51 109 544 00:24:57 13:07 min/m
96 486 Kristina HEILMAN 1022 01:26:32 21 125 00:08:18 2:04 sec/100m 116 605 00:05:05 105 562 00:47:49 12.5 m/hr 52 263 00:02:06 85 451 00:23:12 12:13 min/m
97 487 Melissa IBARRA 1024 01:26:33 28 161 00:08:24 2:06 sec/100m 42 224 00:03:06 89 468 00:45:30 13.2 m/hr 55 290 00:02:13 127 641 00:27:18 14:22 min/m
98 494 Belinda GALLEGOS 1017 01:26:50 30 166 00:08:26 2:06 sec/100m 88 476 00:04:17 90 470 00:45:34 13.2 m/hr 74 391 00:02:29 116 586 00:26:03 13:42 min/m
99 497 April MATHENEY 384 01:26:58 122 657 00:09:58 2:29 sec/100m 119 619 00:05:15 84 451 00:45:14 13.3 m/hr 81 445 00:02:40 93 488 00:23:49 12:32 min/m
100 507 Monica ESPINOZA 1013 01:27:22 41 223 00:08:37 2:09 sec/100m 91 500 00:04:23 113 593 00:48:54 12.3 m/hr 54 287 00:02:12 87 453 00:23:13 12:13 min/m
101 508 Cynthia MULLETT 1113 01:27:22 104 538 00:09:31 2:22 sec/100m 64 341 00:03:38 133 693 00:52:35 11.4 m/hr 44 229 00:02:00 34 197 00:19:37 10:19 min/m
102 511 Veronica COVARRUBIAS 898 01:27:31 112 587 00:09:41 2:25 sec/100m 142 752 00:06:47 94 497 00:46:06 13.0 m/hr 101 533 00:03:06 70 353 00:21:49 11:29 min/m
103 513 Angela MEITLER 61 01:27:48 137 720 00:10:17 2:34 sec/100m 133 695 00:05:53 15 75 00:36:27 16.5 m/hr 143 778 00:05:23 138 730 00:29:46 15:40 min/m
104 517 Leigh-Anne GOLDSTEIN 905 01:28:03 142 752 00:10:32 2:38 sec/100m 130 671 00:05:43 59 311 00:41:40 14.4 m/hr 142 777 00:05:20 106 537 00:24:46 13:02 min/m
105 520 Erica CHEATHAM 309 01:28:11 103 535 00:09:30 2:22 sec/100m 85 461 00:04:15 98 523 00:46:49 12.8 m/hr 144 782 00:05:29 73 371 00:22:06 11:38 min/m
106 523 Melissa WOODWARD 607 01:28:23 117 629 00:09:51 2:27 sec/100m 129 670 00:05:42 82 443 00:44:57 13.3 m/hr 82 448 00:02:40 110 554 00:25:10 13:15 min/m
107 530 Ana SANDOVAL 1037 01:28:44 75 402 00:09:07 2:16 sec/100m 115 604 00:05:05 45 244 00:40:28 14.8 m/hr 149 829 00:10:10 96 493 00:23:51 12:33 min/m
108 533 Silvestra HERRADA 972 01:28:47 135 713 00:10:15 2:33 sec/100m 109 577 00:04:54 95 499 00:46:11 13.0 m/hr 110 582 00:03:21 98 502 00:24:04 12:40 min/m
109 534 Roxanna MONTES 982 01:28:48 52 295 00:08:50 2:12 sec/100m 124 644 00:05:30 114 595 00:48:57 12.3 m/hr 17 117 00:01:38 94 491 00:23:51 12:33 min/m
110 547 Vicki BRADBEER 304 01:29:21 133 709 00:10:14 2:33 sec/100m 52 282 00:03:22 100 536 00:47:10 12.7 m/hr 58 296 00:02:13 120 597 00:26:20 13:51 min/m
111 549 Stacey MITCHELL 12 01:29:23 59 320 00:08:55 2:13 sec/100m 95 525 00:04:30 121 646 00:50:20 11.9 m/hr 47 238 00:02:02 90 473 00:23:33 12:24 min/m
112 555 Lisa GARCIA 465 01:29:48 64 345 00:08:59 2:14 sec/100m 147 814 00:08:57 88 464 00:45:25 13.2 m/hr 132 727 00:04:31 71 360 00:21:55 11:32 min/m
113 561 Melissa GARCIA 1157 01:30:13 80 419 00:09:10 2:17 sec/100m 131 673 00:05:43 125 654 00:50:39 11.8 m/hr 23 143 00:01:45 82 426 00:22:54 12:03 min/m
114 567 Danette FJERSTAD 323 01:30:35 85 444 00:09:15 2:18 sec/100m 108 576 00:04:53 112 591 00:48:50 12.3 m/hr 65 344 00:02:22 111 555 00:25:13 13:16 min/m
115 589 Anjanette PILAT 840 01:31:50 144 759 00:10:34 2:38 sec/100m 122 633 00:05:24 77 421 00:44:20 13.5 m/hr 120 626 00:03:33 131 668 00:27:56 14:42 min/m
116 594 Karen DULYUNAN 110 01:32:08 57 316 00:08:54 2:13 sec/100m 14 101 00:02:17 96 510 00:46:28 12.9 m/hr 115 598 00:03:25 139 744 00:31:01 16:19 min/m
117 610 Cher SCHMITT 406 01:33:09 90 458 00:09:17 2:19 sec/100m 120 624 00:05:20 126 663 00:51:03 11.8 m/hr 117 609 00:03:28 97 499 00:23:59 12:37 min/m
118 613 Adriana PADILLA 388 01:33:11 54 299 00:08:51 2:12 sec/100m 87 464 00:04:15 118 640 00:50:03 12.0 m/hr 61 316 00:02:17 130 660 00:27:42 14:35 min/m
119 625 Wendy EUBANKS 782 01:33:42 136 718 00:10:17 2:34 sec/100m 114 602 00:05:04 93 495 00:46:02 13.0 m/hr 106 554 00:03:12 136 716 00:29:05 15:18 min/m
120 633 Virginia DOWNING 1008 01:34:07 126 672 00:10:01 2:30 sec/100m 101 545 00:04:41 109 578 00:48:10 12.5 m/hr 136 744 00:04:42 122 612 00:26:31 13:57 min/m
121 647 Kari CRUZ 963 01:35:02 110 576 00:09:38 2:24 sec/100m 54 295 00:03:25 128 672 00:51:33 11.6 m/hr 85 456 00:02:42 129 658 00:27:41 14:34 min/m
122 649 Fara BUSS 1005 01:35:05 138 725 00:10:19 2:34 sec/100m 84 454 00:04:13 135 704 00:53:09 11.3 m/hr 137 748 00:04:47 77 408 00:22:35 11:53 min/m
123 654 Susan YOUNG 447 01:35:16 145 761 00:10:34 2:38 sec/100m 146 774 00:07:26 104 560 00:47:47 12.6 m/hr 145 794 00:06:04 88 462 00:23:23 12:18 min/m
124 661 Jennifer MARTINEZ 191 01:35:36 46 249 00:08:42 2:10 sec/100m 53 285 00:03:24 117 636 00:49:59 12.0 m/hr 13 73 00:01:27 143 765 00:32:03 16:52 min/m
125 666 Harmony VASQUEZ 705 01:35:42 124 668 00:10:01 2:30 sec/100m 104 553 00:04:45 107 564 00:47:50 12.5 m/hr 126 678 00:03:59 137 717 00:29:06 15:19 min/m
126 673 Erykah MORENO-SALINAS 479 01:36:02 131 699 00:10:10 2:32 sec/100m 94 515 00:04:28 120 643 00:50:09 12.0 m/hr 141 775 00:05:18 115 581 00:25:55 13:38 min/m
127 674 Linda LUNA 1131 01:36:14 113 590 00:09:41 2:25 sec/100m 123 642 00:05:30 129 674 00:51:41 11.6 m/hr 114 595 00:03:25 114 580 00:25:55 13:38 min/m
128 691 Dusty NORMAN 1034 01:38:03 66 360 00:09:00 2:15 sec/100m 135 713 00:06:13 119 642 00:50:08 12.0 m/hr 140 769 00:05:09 128 649 00:27:31 14:28 min/m
129 697 Michelle LUTTON 256 01:38:58 127 675 00:10:03 2:30 sec/100m 141 743 00:06:39 136 714 00:53:30 11.2 m/hr 78 428 00:02:36 118 588 00:26:08 13:45 min/m
130 700 Jennifer RUBIN 487 01:39:14 48 272 00:08:47 2:11 sec/100m 57 318 00:03:32 143 770 00:59:02 10.2 m/hr 9 58 00:01:22 121 606 00:26:29 13:56 min/m
131 717 Amy TOMLINSON 986 01:40:55 12 68 00:07:59 1:59 sec/100m 132 691 00:05:52 139 755 00:57:54 10.4 m/hr 67 352 00:02:24 124 620 00:26:45 14:04 min/m
132 725 Dorian REEVES 881 01:41:35 148 784 00:10:47 2:41 sec/100m 151 824 00:11:07 127 669 00:51:27 11.7 m/hr 108 573 00:03:19 107 540 00:24:52 13:05 min/m
133 727 Michelle MILLER 814 01:42:19 123 661 00:09:59 2:29 sec/100m 121 632 00:05:24 122 647 00:50:22 11.9 m/hr 123 647 00:03:42 144 777 00:32:50 17:17 min/m
134 731 Teresa CHAO 148 01:43:34 134 712 00:10:15 2:33 sec/100m 128 663 00:05:40 138 742 00:56:22 10.6 m/hr 107 572 00:03:19 132 671 00:27:57 14:42 min/m
135 732 Andrea PERKINS 858 01:43:39 132 703 00:10:11 2:32 sec/100m 55 303 00:03:26 132 690 00:52:28 11.4 m/hr 146 800 00:06:21 142 749 00:31:11 16:24 min/m
136 738 Sammi BROUSSARD 773 01:44:15 143 756 00:10:33 2:38 sec/100m 150 820 00:09:42 116 613 00:49:22 12.2 m/hr 119 624 00:03:33 140 745 00:31:04 16:21 min/m
137 749 Bernadette BENITEZ 299 01:45:32 99 508 00:09:25 2:21 sec/100m 118 613 00:05:11 131 680 00:52:02 11.5 m/hr 124 666 00:03:52 146 805 00:35:01 18:25 min/m
138 751 Theresa GROCHOWSKI 340 01:46:17 125 671 00:10:01 2:30 sec/100m 140 742 00:06:38 146 796 01:04:18 9.3 m/hr 102 535 00:03:06 75 378 00:22:12 11:41 min/m
139 752 Andrea REQUENES 762 01:46:23 139 728 00:10:19 2:34 sec/100m 76 399 00:03:55 130 677 00:51:44 11.6 m/hr 80 441 00:02:39 148 818 00:37:43 19:51 min/m
140 756 Natalie RUSK 952 01:46:31 11 55 00:07:50 1:57 sec/100m 137 725 00:06:20 142 763 00:58:27 10.3 m/hr 148 822 00:09:27 101 516 00:24:24 12:51 min/m
141 757 Rikki WALLACE 1055 01:46:31 146 765 00:10:37 2:39 sec/100m 125 646 00:05:30 144 773 00:59:39 10.1 m/hr 116 601 00:03:26 126 639 00:27:17 14:21 min/m
142 764 Karrie RUTHERFORD 834 01:46:49 128 680 00:10:04 2:31 sec/100m 103 549 00:04:43 123 648 00:50:24 11.9 m/hr 71 379 00:02:27 150 825 00:39:08 20:36 min/m
143 769 Annette BORREGO 1102 01:48:09 102 518 00:09:26 2:21 sec/100m 138 736 00:06:29 140 756 00:58:05 10.3 m/hr 98 519 00:03:02 141 746 00:31:05 16:21 min/m
144 788 Hong NGO 817 01:52:08 149 802 00:11:04 2:46 sec/100m 127 658 00:05:35 141 758 00:58:16 10.3 m/hr 150 834 00:14:07 83 436 00:23:04 12:08 min/m
145 790 Trisha TANNER 929 01:52:20 88 454 00:09:16 2:19 sec/100m 139 741 00:06:37 147 797 01:05:08 9.2 m/hr 93 494 00:02:55 134 690 00:28:22 14:55 min/m
146 791 Olga RODRIGUEZ 1158 01:52:31 73 397 00:09:06 2:16 sec/100m 143 758 00:06:56 148 802 01:05:39 9.1 m/hr 70 378 00:02:27 133 688 00:28:20 14:55 min/m
147 797 Alpa CHALLAPALLI 895 01:53:58 98 507 00:09:24 2:21 sec/100m 134 710 00:06:11 150 822 01:12:01 8.3 m/hr 128 704 00:04:16 72 367 00:22:05 11:37 min/m
148 800 Beatriz ORTIZ 18 01:55:37 151 819 00:11:36 2:54 sec/100m 144 762 00:06:59 137 728 00:54:42 11.0 m/hr 134 731 00:04:32 149 821 00:37:46 19:52 min/m
149 805 Rosa JACKSON 795 01:56:06 116 627 00:09:50 2:27 sec/100m 93 511 00:04:26 149 815 01:10:00 8.6 m/hr 100 526 00:03:03 135 704 00:28:45 15:07 min/m
150 806 Pranika SINHA 696 01:56:22 101 515 00:09:25 2:21 sec/100m 106 562 00:04:48 145 791 01:03:33 9.4 m/hr 131 718 00:04:24 145 796 00:34:09 17:58 min/m
151 824 Krissy AMATO 33 02:05:22 150 812 00:11:22 2:50 sec/100m 149 819 00:09:30 111 586 00:48:29 12.4 m/hr 151 835 00:15:56 151 829 00:40:03 21:04 min/m
152 842 Rebekah MELTON 979 02:14:25 147 773 00:10:40 2:40 sec/100m 145 763 00:07:00 151 830 01:17:19 7.8 m/hr 87 475 00:02:48 147 815 00:36:36 19:16 min/m
Ages 45 - 49
1 4 Kathryn COTHERN 238 00:56:49 27 217 00:08:37 2:09 sec/100m 2 12 00:01:23 1 2 00:30:12 19.9 m/hr 5 37 00:01:14 2 12 00:15:21 8:05 min/m
2 5 Sheila COOK 154 00:57:09 10 91 00:08:09 2:02 sec/100m 1 10 00:01:21 2 10 00:32:20 18.6 m/hr 1 2 00:00:46 1 2 00:14:30 7:38 min/m
3 23 Lana HARRISON 942 01:03:31                                    
4 29 Erica NIERTH 1114 01:04:17 18 164 00:08:25 2:06 sec/100m 3 29 00:01:44 4 27 00:34:02 17.6 m/hr 35 260 00:02:06 14 84 00:17:57 9:27 min/m
5 30 Victoria RODRIGUEZ 1134 01:04:18 11 103 00:08:12 2:03 sec/100m 12 76 00:02:11 11 71 00:36:13 16.6 m/hr 4 21 00:01:05 5 27 00:16:36 8:44 min/m
6 38 Jen BECKEY 106 01:05:21 26 202 00:08:32 2:08 sec/100m 7 50 00:01:57 5 29 00:34:25 17.4 m/hr 34 258 00:02:06 16 105 00:18:19 9:38 min/m
7 39 Drena HERBERT 121 01:05:21 44 400 00:09:07 2:16 sec/100m 6 38 00:01:51 8 43 00:35:17 17.0 m/hr 15 129 00:01:41 8 55 00:17:23 9:09 min/m
8 43 Rachel HEARD 943 01:05:48 1 6 00:07:02 1:45 sec/100m 14 80 00:02:11 10 58 00:35:49 16.7 m/hr 13 116 00:01:38 21 161 00:19:06 10:03 min/m
9 44 Cheryl MONTGOMERY 548 01:05:59 4 42 00:07:38 1:54 sec/100m 9 54 00:01:58 27 153 00:38:32 15.6 m/hr 17 156 00:01:46 4 20 00:16:03 8:27 min/m
10 50 Hailey KRUSE 539 01:06:25 13 120 00:08:17 2:04 sec/100m 5 36 00:01:51 18 104 00:37:18 16.1 m/hr 3 19 00:01:04 13 81 00:17:54 9:25 min/m
11 52 Tonya STRADER 748 01:06:35 8 82 00:08:08 2:02 sec/100m 10 61 00:02:02 14 91 00:36:56 16.2 m/hr 8 74 00:01:27 15 87 00:18:02 9:29 min/m
12 53 Gina DILLON 240 01:06:40 16 149 00:08:22 2:05 sec/100m 51 350 00:03:41 16 97 00:37:04 16.2 m/hr 12 115 00:01:38 3 16 00:15:53 8:22 min/m
13 73 Pamela JOHNSON 799 01:08:39 3 33 00:07:30 1:52 sec/100m 34 211 00:03:01 20 125 00:37:56 15.8 m/hr 44 330 00:02:20 12 78 00:17:48 9:22 min/m
14 83 Stacie OTTEN 203 01:09:10 2 18 00:07:15 1:48 sec/100m 17 107 00:02:21 25 144 00:38:19 15.7 m/hr 24 199 00:01:54 23 174 00:19:20 10:10 min/m
15 97 Karen GUERRA 342 01:10:07 47 422 00:09:10 2:17 sec/100m 13 77 00:02:11 35 207 00:39:51 15.1 m/hr 7 67 00:01:25 9 59 00:17:28 9:11 min/m
16 110 Vivienne SPY 578 01:10:41 9 86 00:08:09 2:02 sec/100m 15 82 00:02:12 36 211 00:39:54 15.0 m/hr 33 256 00:02:05 17 106 00:18:20 9:39 min/m
17 112 Libby BARNETTE 504 01:10:44 14 122 00:08:17 2:04 sec/100m 24 147 00:02:40 12 78 00:36:40 16.4 m/hr 36 262 00:02:06 38 299 00:20:59 11:02 min/m
18 124 Kathleen BOUCHER 47 01:11:28 29 255 00:08:43 2:10 sec/100m 26 155 00:02:43 21 126 00:37:59 15.8 m/hr 59 482 00:02:49 22 166 00:19:12 10:06 min/m
19 127 Julissa SCHULTZ 275 01:11:38 79 639 00:09:53 2:28 sec/100m 11 64 00:02:03 9 51 00:35:33 16.9 m/hr 74 602 00:03:26 31 272 00:20:41 10:53 min/m
20 134 Tia RAYMOND 206 01:11:47 35 305 00:08:53 2:13 sec/100m 25 153 00:02:42 26 152 00:38:28 15.6 m/hr 30 230 00:02:00 26 207 00:19:42 10:22 min/m
21 141 Jennifer GARCIA 786 01:12:09 28 251 00:08:42 2:10 sec/100m 21 118 00:02:25 28 178 00:39:11 15.3 m/hr 42 288 00:02:13 24 196 00:19:36 10:19 min/m
22 142 Denisse LYON 125 01:12:12 23 187 00:08:30 2:07 sec/100m 19 112 00:02:23 17 102 00:37:18 16.1 m/hr 58 466 00:02:46 42 324 00:21:14 11:10 min/m
23 150 Heather NAMENDORF 1122 01:12:25 46 404 00:09:07 2:16 sec/100m 61 433 00:04:06 32 191 00:39:29 15.2 m/hr 57 462 00:02:44 6 38 00:16:56 8:54 min/m
24 158 Virginia RODRIGUEZ 833 01:12:52 55 468 00:09:18 2:19 sec/100m 22 134 00:02:34 31 185 00:39:24 15.2 m/hr 25 205 00:01:55 25 203 00:19:39 10:20 min/m
25 165 Norma Jean CANO 145 01:13:19 100 749 00:10:31 2:37 sec/100m 27 159 00:02:45 39 240 00:40:24 14.8 m/hr 19 176 00:01:50 11 77 00:17:47 9:22 min/m
26 167 Meredith HARPER 59 01:13:20 22 186 00:08:30 2:07 sec/100m 18 109 00:02:21 40 246 00:40:31 14.8 m/hr 62 508 00:02:59 19 150 00:18:56 9:58 min/m
27 168 Lena NEL 759 01:13:30 7 71 00:08:02 2:00 sec/100m 23 137 00:02:36 6 32 00:34:37 17.3 m/hr 61 501 00:02:57 78 559 00:25:17 13:18 min/m
28 170 Yvette ROSALES 1123 01:13:32 17 159 00:08:24 2:06 sec/100m 16 102 00:02:17 19 111 00:37:28 16.0 m/hr 28 224 00:01:59 63 459 00:23:22 12:18 min/m
29 173 Ann MILLER 753 01:13:42 41 370 00:09:02 2:15 sec/100m 54 397 00:03:54 7 41 00:35:06 17.1 m/hr 94 700 00:04:13 44 337 00:21:24 11:16 min/m
30 179 Kelly LYNCH 992 01:13:53 73 594 00:09:43 2:25 sec/100m 41 284 00:03:23 43 267 00:40:46 14.7 m/hr 2 8 00:00:55 20 158 00:19:05 10:02 min/m
31 196 Kristy CALDWELL 307 01:14:56 33 293 00:08:50 2:12 sec/100m 53 384 00:03:52 22 133 00:38:01 15.8 m/hr 26 211 00:01:56 52 384 00:22:15 11:42 min/m
32 204 Gina GALLEGOS 1173 01:15:25 42 373 00:09:02 2:15 sec/100m 38 252 00:03:14 61 404 00:43:46 13.7 m/hr 18 161 00:01:47 10 63 00:17:33 9:14 min/m
33 206 Nicola MASON 477 01:15:35 94 721 00:10:18 2:34 sec/100m 33 199 00:02:56 23 135 00:38:03 15.8 m/hr 65 530 00:03:05 41 323 00:21:12 11:09 min/m
34 207 Holly DINKEL 521 01:15:39 72 593 00:09:42 2:25 sec/100m 76 560 00:04:46 47 278 00:40:55 14.7 m/hr 63 522 00:03:02 7 46 00:17:11 9:02 min/m
35 214 Deborah VALVERDE 859 01:15:47 64 537 00:09:30 2:22 sec/100m 46 330 00:03:34 34 205 00:39:50 15.1 m/hr 31 236 00:02:02 34 283 00:20:49 10:57 min/m
36 219 Brenda WALSH 582 01:16:10 50 451 00:09:16 2:19 sec/100m 83 609 00:05:07 38 216 00:39:59 15.0 m/hr 60 492 00:02:54 18 146 00:18:52 9:56 min/m
37 221 Wendy JOHNSON 868 01:16:11 12 109 00:08:14 2:03 sec/100m 28 168 00:02:47 41 256 00:40:40 14.8 m/hr 32 244 00:02:04 53 393 00:22:24 11:47 min/m
38 233 Laura SHELTON 212 01:16:50 59 491 00:09:22 2:20 sec/100m 32 190 00:02:55 24 140 00:38:15 15.7 m/hr 55 453 00:02:42 66 477 00:23:35 12:24 min/m
39 238 Penny GALLEGOS 941 01:16:54 68 563 00:09:35 2:23 sec/100m 70 532 00:04:34 13 79 00:36:40 16.4 m/hr 73 597 00:03:25 57 410 00:22:38 11:54 min/m
40 240 Deann HOOPER 534 01:16:59 60 501 00:09:22 2:20 sec/100m 40 277 00:03:21 49 285 00:41:03 14.6 m/hr 29 228 00:02:00 40 320 00:21:11 11:09 min/m
41 285 Debbie ZAPATA 448 01:18:40 66 557 00:09:34 2:23 sec/100m 63 441 00:04:09 33 201 00:39:40 15.1 m/hr 104 750 00:04:50 29 249 00:20:25 10:44 min/m
42 287 Kathy HERTWECK 718 01:18:42 21 177 00:08:28 2:07 sec/100m 4 31 00:01:46 51 322 00:42:01 14.3 m/hr 21 185 00:01:52 73 529 00:24:34 12:56 min/m
43 293 Jill NICHOLS 199 01:18:57 25 201 00:08:32 2:08 sec/100m 57 406 00:03:58 45 275 00:40:53 14.7 m/hr 52 418 00:02:34 60 429 00:22:58 12:05 min/m
44 302 Jane LANGSTON 740 01:19:16 20 171 00:08:27 2:06 sec/100m 84 614 00:05:13 44 274 00:40:52 14.7 m/hr 85 660 00:03:51 35 286 00:20:52 10:59 min/m
45 303 Lisa WILDMAN 500 01:19:17 36 326 00:08:56 2:14 sec/100m 71 540 00:04:37 52 339 00:42:22 14.2 m/hr 47 349 00:02:23 37 296 00:20:57 11:01 min/m
46 321 Kay MAILANDER 369 01:20:04 58 490 00:09:21 2:20 sec/100m 35 223 00:03:05 15 95 00:37:02 16.2 m/hr 110 781 00:05:27 77 552 00:25:07 13:13 min/m
47 336 Diane JANSEN 471 01:20:55 37 335 00:08:57 2:14 sec/100m 39 258 00:03:15 72 493 00:46:01 13.0 m/hr 23 198 00:01:54 32 279 00:20:46 10:55 min/m
48 348 Laurie MOORE 871 01:21:24 85 660 00:09:59 2:29 sec/100m 81 591 00:04:58 55 355 00:42:38 14.1 m/hr 86 664 00:03:51 27 216 00:19:56 10:29 min/m
49 349 Lora HUDGINS 173 01:21:24 65 545 00:09:31 2:22 sec/100m 56 405 00:03:57 56 356 00:42:39 14.1 m/hr 95 703 00:04:15 39 302 00:20:59 11:03 min/m
50 352 Isabelle PRENDERGAST 601 01:21:32 102 766 00:10:38 2:39 sec/100m 30 179 00:02:51 29 181 00:39:18 15.3 m/hr 20 181 00:01:51 86 625 00:26:52 14:08 min/m
51 355 Rebecca ROBERTS 1041 01:21:37 69 570 00:09:37 2:24 sec/100m 67 493 00:04:21 42 258 00:40:40 14.7 m/hr 50 412 00:02:33 69 515 00:24:24 12:50 min/m
52 360 Zulema BAEZ 2 01:21:49 30 280 00:08:48 2:12 sec/100m 42 291 00:03:25 65 445 00:45:03 13.3 m/hr 53 425 00:02:36 46 361 00:21:56 11:32 min/m
53 364 Kitty BERLANGA 176 01:21:57 39 357 00:09:00 2:15 sec/100m 36 226 00:03:07 46 277 00:40:55 14.7 m/hr 38 272 00:02:09 84 619 00:26:44 14:04 min/m
54 365 Yolimar PLAYTON 85 01:22:00 54 467 00:09:18 2:19 sec/100m 37 249 00:03:13 75 532 00:47:01 12.8 m/hr 37 265 00:02:07 28 245 00:20:19 10:41 min/m
55 366 Katherine MOSHIER 675 01:22:01 19 165 00:08:26 2:06 sec/100m 55 401 00:03:56 71 487 00:45:56 13.1 m/hr 11 101 00:01:35 48 372 00:22:06 11:38 min/m
56 371 Rebecca ALEMAN 989 01:22:12 70 574 00:09:38 2:24 sec/100m 103 750 00:06:45 50 313 00:41:42 14.4 m/hr 81 639 00:03:39 30 250 00:20:26 10:45 min/m
57 373 Patricia GONZALES 649 01:22:24 15 133 00:08:19 2:04 sec/100m 98 720 00:06:18 58 377 00:43:12 13.9 m/hr 80 636 00:03:38 36 294 00:20:56 11:01 min/m
58 395 Shanna BUTLER 940 01:23:24 40 358 00:09:00 2:15 sec/100m 94 705 00:06:05 66 457 00:45:19 13.2 m/hr 40 280 00:02:11 33 280 00:20:46 10:56 min/m
59 400 Tonya STILWELL 699 01:23:33 38 337 00:08:58 2:14 sec/100m 104 772 00:07:24 37 214 00:39:56 15.0 m/hr 105 755 00:05:00 51 383 00:22:14 11:42 min/m
60 424 Mary STEED 839 01:24:21 32 285 00:08:48 2:12 sec/100m 52 352 00:03:42 30 184 00:39:24 15.2 m/hr 107 768 00:05:08 87 637 00:27:17 14:21 min/m
61 427 Thuy-Van STAFFORD 491 01:24:33 84 659 00:09:59 2:29 sec/100m 43 307 00:03:28 48 281 00:41:00 14.6 m/hr 71 563 00:03:16 85 623 00:26:48 14:06 min/m
62 436 Norma CANTU 146 01:24:46 62 521 00:09:27 2:21 sec/100m 45 325 00:03:33 69 476 00:45:42 13.1 m/hr 103 732 00:04:32 45 342 00:21:31 11:19 min/m
63 440 Tina ALLEN 767 01:24:56 31 281 00:08:48 2:12 sec/100m 44 322 00:03:33 53 344 00:42:26 14.1 m/hr 27 219 00:01:57 93 681 00:28:11 14:50 min/m
64 462 Ann VOLPE 1180 01:25:42 91 705 00:10:12 2:33 sec/100m 100 737 00:06:31 62 430 00:44:31 13.5 m/hr 66 542 00:03:09 43 327 00:21:16 11:11 min/m
65 463 Angela MEYER 980 01:25:44 67 561 00:09:35 2:23 sec/100m 8 51 00:01:57 82 594 00:48:55 12.3 m/hr 10 99 00:01:34 67 485 00:23:41 12:27 min/m
66 476 Joette MARTIN 257 01:26:02 111 817 00:11:30 2:52 sec/100m 48 339 00:03:37 73 509 00:46:26 12.9 m/hr 43 302 00:02:14 50 381 00:22:13 11:41 min/m
67 489 Kay SCOTT 690 01:26:35 104 783 00:10:45 2:41 sec/100m 47 331 00:03:34 60 402 00:43:43 13.7 m/hr 83 651 00:03:45 75 538 00:24:46 13:02 min/m
68 492 Monica LAMADORE-MARTINEZ 803 01:26:43 105 791 00:10:53 2:43 sec/100m 97 719 00:06:17 57 370 00:42:59 14.0 m/hr 88 675 00:03:57 56 405 00:22:34 11:52 min/m
69 493 Susan PALFREY 681 01:26:45 90 701 00:10:10 2:32 sec/100m 62 438 00:04:08 63 438 00:44:43 13.4 m/hr 97 707 00:04:18 65 461 00:23:23 12:18 min/m
70 501 Nita MEHTA 674 01:27:05 88 689 00:10:06 2:31 sec/100m 69 527 00:04:31 64 439 00:44:46 13.4 m/hr 96 706 00:04:18 64 460 00:23:23 12:18 min/m
71 503 Samantha NETTLES 16 01:27:09 109 805 00:11:07 2:46 sec/100m 113 823 00:10:29 3 23 00:33:40 17.8 m/hr 87 669 00:03:53 91 672 00:27:58 14:43 min/m
72 516 Jeanine POLLARD 995 01:27:59 51 461 00:09:17 2:19 sec/100m 95 715 00:06:14 54 345 00:42:30 14.1 m/hr 72 571 00:03:18 82 615 00:26:38 14:01 min/m
73 521 Benet BLANSETT 725 01:28:16 57 477 00:09:19 2:19 sec/100m 29 176 00:02:49 70 477 00:45:42 13.1 m/hr 16 139 00:01:44 96 703 00:28:40 15:05 min/m
74 522 Melissa MUIR 816 01:28:20 75 617 00:09:48 2:27 sec/100m 77 566 00:04:50 79 573 00:48:02 12.5 m/hr 46 336 00:02:21 62 456 00:23:18 12:16 min/m
75 537 Sheryl DAVIS 588 01:29:01 86 663 00:10:00 2:30 sec/100m 65 452 00:04:13 68 471 00:45:35 13.2 m/hr 51 413 00:02:33 83 616 00:26:39 14:01 min/m
76 543 Maria HERNANDEZ 792 01:29:09 89 698 00:10:09 2:32 sec/100m 72 551 00:04:44 67 460 00:45:20 13.2 m/hr 112 802 00:06:29 54 394 00:22:25 11:47 min/m
77 554 Kathleen Lukasik CUMMINGS 899 01:29:48 45 401 00:09:07 2:16 sec/100m 73 556 00:04:45 59 381 00:43:16 13.9 m/hr 79 630 00:03:35 98 714 00:29:03 15:17 min/m
78 556 Jessica NIXON 873 01:29:52 87 674 00:10:02 2:30 sec/100m 31 187 00:02:55 84 625 00:49:38 12.1 m/hr 9 84 00:01:29 79 577 00:25:47 13:34 min/m
79 568 Lisa WALKER 429 01:30:41 5 58 00:07:52 1:58 sec/100m 64 451 00:04:13 94 701 00:53:00 11.3 m/hr 77 622 00:03:32 47 365 00:22:03 11:36 min/m
80 583 Krista FLYNN 324 01:31:17 82 649 00:09:55 2:28 sec/100m 96 718 00:06:17 74 530 00:47:00 12.8 m/hr 76 614 00:03:30 72 527 00:24:32 12:55 min/m
81 584 Angie BRITTON 772 01:31:27 49 449 00:09:16 2:19 sec/100m 85 618 00:05:15 81 585 00:48:23 12.4 m/hr 90 686 00:04:04 71 518 00:24:28 12:52 min/m
82 588 Martha VASQUEZ 427 01:31:50 53 465 00:09:18 2:19 sec/100m 66 472 00:04:16 88 660 00:50:56 11.8 m/hr 49 388 00:02:28 76 539 00:24:50 13:04 min/m
83 600 Michaela ROJAS-DUARTE 1042 01:32:35 76 619 00:09:48 2:27 sec/100m 58 407 00:03:58 85 631 00:49:48 12.0 m/hr 100 714 00:04:23 74 530 00:24:36 12:56 min/m
84 612 Christina SILVA 604 01:33:11 97 744 00:10:27 2:36 sec/100m 74 557 00:04:45 76 535 00:47:09 12.7 m/hr 45 334 00:02:21 94 693 00:28:27 14:58 min/m
85 624 Lisa RICHARDS 396 01:33:36 77 630 00:09:51 2:27 sec/100m 79 581 00:04:54 96 724 00:54:16 11.1 m/hr 22 186 00:01:52 58 414 00:22:41 11:56 min/m
86 627 Cameron WEIRBACH 708 01:33:51 83 651 00:09:56 2:29 sec/100m 59 412 00:04:01 95 712 00:53:22 11.2 m/hr 39 279 00:02:11 68 513 00:24:19 12:48 min/m
87 629 Janice CRUZ 1107 01:33:58 108 799 00:11:00 2:45 sec/100m 101 745 00:06:40 83 600 00:49:02 12.2 m/hr 102 729 00:04:31 59 417 00:22:43 11:57 min/m
88 651 Deborah MASON 258 01:35:08 24 190 00:08:30 2:07 sec/100m 78 575 00:04:53 86 655 00:50:44 11.8 m/hr 69 552 00:03:12 90 664 00:27:47 14:37 min/m
89 663 Abbie WARD 752 01:35:37 81 648 00:09:55 2:28 sec/100m 88 637 00:05:27 87 657 00:50:49 11.8 m/hr 68 551 00:03:12 80 590 00:26:13 13:47 min/m
90 676 Robyn BOUMAN 48 01:36:15 99 747 00:10:30 2:37 sec/100m 49 342 00:03:38 90 667 00:51:22 11.7 m/hr 67 547 00:03:10 89 653 00:27:33 14:30 min/m
91 688 Carolyn GAYNOR 1018 01:37:42 43 396 00:09:06 2:16 sec/100m 50 347 00:03:40 80 583 00:48:20 12.4 m/hr 93 697 00:04:11 105 771 00:32:22 17:02 min/m
92 692 Trish MARTIN 672 01:38:08 95 722 00:10:18 2:34 sec/100m 108 806 00:08:34 77 546 00:47:30 12.6 m/hr 114 823 00:09:34 49 377 00:22:10 11:40 min/m
93 693 Theresa ARTHUR 294 01:38:33 96 733 00:10:22 2:35 sec/100m 106 804 00:08:33 78 548 00:47:31 12.6 m/hr 115 824 00:09:35 55 400 00:22:30 11:50 min/m
94 696 Elizabeth DALTON 239 01:38:57 80 644 00:09:53 2:28 sec/100m 80 585 00:04:56 92 683 00:52:07 11.5 m/hr 75 605 00:03:27 95 698 00:28:32 15:01 min/m
95 709 Diaz GUADALUPE 341 01:39:57 52 464 00:09:18 2:19 sec/100m 20 117 00:02:25 99 740 00:56:00 10.7 m/hr 14 123 00:01:39 104 741 00:30:33 16:04 min/m
96 712 Linda CASTILLO 423 01:40:19 34 297 00:08:51 2:12 sec/100m 75 558 00:04:46 97 737 00:55:23 10.8 m/hr 106 763 00:05:04 81 591 00:26:13 13:48 min/m
97 716 Jana MIDDLESWART 547 01:40:53 63 522 00:09:27 2:21 sec/100m 93 703 00:06:04 91 679 00:52:01 11.5 m/hr 84 656 00:03:47 100 727 00:29:32 15:32 min/m
98 744 Cynthia ALONSO 613 01:44:53 74 607 00:09:45 2:26 sec/100m 105 789 00:07:52 98 738 00:55:45 10.8 m/hr 89 683 00:04:02 88 644 00:27:27 14:27 min/m
99 755 Veronica FELAN 783 01:46:29 92 708 00:10:14 2:33 sec/100m 68 499 00:04:23 93 686 00:52:18 11.5 m/hr 54 440 00:02:39 113 816 00:36:54 19:25 min/m
100 759 Acey MORENO 944 01:46:35 6 59 00:07:53 1:58 sec/100m 99 723 00:06:19 101 764 00:58:35 10.2 m/hr 113 821 00:09:20 70 517 00:24:25 12:51 min/m
101 772 Erika WYCKOFF 1058 01:48:23 106 796 00:10:57 2:44 sec/100m 112 821 00:09:43 89 664 00:51:11 11.7 m/hr 6 41 00:01:15 110 807 00:35:15 18:33 min/m
102 773 Yolanda CHANCE 235 01:48:32 103 779 00:10:44 2:41 sec/100m 86 629 00:05:22 102 768 00:58:52 10.2 m/hr 82 641 00:03:40 102 732 00:29:52 15:43 min/m
103 785 Stephanie COLLINS 631 01:51:46 61 516 00:09:26 2:21 sec/100m 91 680 00:05:47 106 795 01:04:13 9.3 m/hr 56 457 00:02:42 101 728 00:29:35 15:34 min/m
104 787 Ha NGO 983 01:52:02 107 798 00:11:00 2:45 sec/100m 90 648 00:05:31 111 817 01:10:15 8.5 m/hr 41 281 00:02:11 61 435 00:23:03 12:08 min/m
105 789 Temple MCKINNON 917 01:52:16 48 429 00:09:11 2:17 sec/100m 102 746 00:06:40 103 779 01:01:26 9.8 m/hr 101 722 00:04:28 103 740 00:30:28 16:02 min/m
106 803 Belinda JONES 836 01:55:53 78 636 00:09:52 2:28 sec/100m 60 431 00:04:06 109 806 01:06:53 9.0 m/hr 48 367 00:02:25 106 773 00:32:35 17:08 min/m
107 804 Marcy WILBURN 441 01:55:55 98 745 00:10:28 2:37 sec/100m 89 640 00:05:29 108 805 01:06:34 9.0 m/hr 99 712 00:04:22 97 712 00:28:59 15:15 min/m
108 814 Kristen SPRINGER 354 01:59:18 56 470 00:09:18 2:19 sec/100m 109 810 00:08:49 110 809 01:07:49 8.8 m/hr 108 771 00:05:14 92 676 00:28:07 14:47 min/m
109 817 Sandra ALLEN 1000 01:59:53 71 581 00:09:40 2:25 sec/100m 87 636 00:05:27 112 820 01:10:54 8.5 m/hr 98 709 00:04:19 99 726 00:29:31 15:32 min/m
110 818 Julie NELSON 264 02:00:00 114 831 00:13:41 3:25 sec/100m 110 813 00:08:56 100 762 00:58:19 10.3 m/hr 70 553 00:03:12 111 811 00:35:50 18:52 min/m
111 823 Stacy SPARKS 412 02:05:21 110 808 00:11:14 2:48 sec/100m 107 805 00:08:33 104 783 01:01:49 9.7 m/hr 78 629 00:03:34 114 831 00:40:08 21:07 min/m
112 827 Eva ZOBIANWOLF 852 02:05:39 93 714 00:10:16 2:34 sec/100m 82 594 00:04:59 113 824 01:13:43 8.1 m/hr 64 528 00:03:04 108 785 00:33:35 17:40 min/m
113 829 Debbie HAWKINS 344 02:06:09 112 822 00:11:46 2:56 sec/100m 115 834 00:13:24 105 789 01:02:27 9.6 m/hr 91 687 00:04:04 109 801 00:34:26 18:07 min/m
114 839 Brenda KRUSELY 254 02:10:15 115 832 00:13:44 3:26 sec/100m 111 815 00:08:57 107 798 01:05:13 9.2 m/hr 111 791 00:05:51 112 814 00:36:29 19:12 min/m
115 845 Marty STILES 1047 02:17:04 101 755 00:10:33 2:38 sec/100m 92 698 00:05:59 114 835 01:21:50 7.3 m/hr 109 773 00:05:17 107 782 00:33:22 17:33 min/m
116 846 Susan PESTANA 556 02:40:28 113 826 00:12:37 3:09 sec/100m 114 829 00:12:12 115 837 01:24:43 7.1 m/hr 92 696 00:04:11 115